Observation data for South Plains 3ENE on 05/24/2020      Previous  Date  Next       Current Mesonet Observations  Soil Data  Daily Summary Page  Observations in Plain Language
KSP2 240500Z 10007KT 18/12 A2983 RMK A01 T01770119  RH  069%=      5-min Rain = 0
KSP2 240501Z 10007KT 18/12 A2983 RMK A01 T01760119  RH  069%=      5-min Rain = 0
KSP2 240502Z 10006KT 18/12 A2983 RMK A01 T01750119  RH  069%=      5-min Rain = 0
KSP2 240503Z 11005KT 18/12 A2984 RMK A01 T01750119  RH  070%=      5-min Rain = 0
KSP2 240504Z 14005KT 18/12 A2984 RMK A01 T01750119  RH  070%=      5-min Rain = 0
KSP2 240505Z 16005KT 18/12 A2984 RMK A01 T01750119  RH  070%=      5-min Rain = 0
KSP2 240506Z 17004KT 17/12 A2984 RMK A01 T01740119  RH  070%=      5-min Rain = 0
KSP2 240507Z 15003KT 17/12 A2984 RMK A01 T01740119  RH  070%=      5-min Rain = 0
KSP2 240508Z 14004KT 17/12 A2984 RMK A01 T01740119  RH  070%=      5-min Rain = 0
KSP2 240509Z 15004KT 17/12 A2984 RMK A01 T01730119  RH  070%=      5-min Rain = 0
KSP2 240510Z 15003KT 17/12 A2984 RMK A01 T01730119  RH  071%=      5-min Rain = 0
KSP2 240511Z 13003KT 17/12 A2984 RMK A01 T01730119  RH  071%=      5-min Rain = 0
KSP2 240512Z 12003KT 17/12 A2984 RMK A01 T01720119  RH  071%=      5-min Rain = 0
KSP2 240513Z 15003KT 17/12 A2984 RMK A01 T01720119  RH  071%=      5-min Rain = 0
KSP2 240514Z 15004KT 17/12 A2984 RMK A01 T01710119  RH  071%=      5-min Rain = 0
KSP2 240515Z 14003KT 17/12 A2984 RMK A01 T01710119  RH  071%=      5-min Rain = 0
KSP2 240516Z 16004KT 17/12 A2984 RMK A01 T01710119  RH  071%=      5-min Rain = 0
KSP2 240517Z 16007KT 17/12 A2984 RMK A01 T01700119  RH  071%=      5-min Rain = 0
KSP2 240518Z 16007KT 17/12 A2984 RMK A01 T01700118  RH  072%=      5-min Rain = 0
KSP2 240519Z 15006KT 17/12 A2984 RMK A01 T01690118  RH  072%=      5-min Rain = 0
KSP2 240520Z 15007KT 17/12 A2984 RMK A01 T01690118  RH  072%=      5-min Rain = 0
KSP2 240521Z 17009KT 17/12 A2985 RMK A01 T01700118  RH  072%=      5-min Rain = 0
KSP2 240522Z 18010KT 17/12 A2985 RMK A01 T01710118  RH  071%=      5-min Rain = 0
KSP2 240523Z 17009KT 17/12 A2985 RMK A01 T01720118  RH  070%=      5-min Rain = 0
KSP2 240524Z 15010KT 17/12 A2985 RMK A01 T01730118  RH  070%=      5-min Rain = 0
KSP2 240525Z 14008KT 17/12 A2984 RMK A01 T01740117  RH  069%=      5-min Rain = 0
KSP2 240526Z 13010KT 18/12 A2984 RMK A01 T01750117  RH  069%=      5-min Rain = 0
KSP2 240527Z 13010KT 18/12 A2984 RMK A01 T01760116  RH  068%=      5-min Rain = 0
KSP2 240528Z 13009KT 18/12 A2984 RMK A01 T01760116  RH  068%=      5-min Rain = 0
KSP2 240529Z 13010KT 18/12 A2984 RMK A01 T01770116  RH  067%=      5-min Rain = 0
KSP2 240530Z 13010KT 18/12 A2984 RMK A01 T01770115  RH  067%=      5-min Rain = 0
KSP2 240531Z 14010KT 18/12 A2984 RMK A01 T01780115  RH  067%=      5-min Rain = 0
KSP2 240532Z 16010KT 18/12 A2984 RMK A01 T01780115  RH  066%=      5-min Rain = 0
KSP2 240533Z 16010KT 18/12 A2985 RMK A01 T01780115  RH  067%=      5-min Rain = 0
KSP2 240534Z 16010KT 18/12 A2985 RMK A01 T01780115  RH  067%=      5-min Rain = 0
KSP2 240535Z 15007KT 18/12 A2984 RMK A01 T01780115  RH  067%=      5-min Rain = 0
KSP2 240536Z 14007KT 18/12 A2984 RMK A01 T01780115  RH  067%=      5-min Rain = 0
KSP2 240537Z 14007KT 18/12 A2984 RMK A01 T01780115  RH  066%=      5-min Rain = 0
KSP2 240538Z 15007KT 18/12 A2984 RMK A01 T01780115  RH  067%=      5-min Rain = 0
KSP2 240539Z 15008KT 18/12 A2984 RMK A01 T01780115  RH  066%=      5-min Rain = 0
KSP2 240540Z 15007KT 18/11 A2984 RMK A01 T01780114  RH  066%=      5-min Rain = 0
KSP2 240541Z 15008KT 18/11 A2984 RMK A01 T01780114  RH  066%=      5-min Rain = 0
KSP2 240542Z 15007KT 18/11 A2984 RMK A01 T01770114  RH  066%=      5-min Rain = 0
KSP2 240543Z 15007KT 18/11 A2984 RMK A01 T01770114  RH  067%=      5-min Rain = 0
KSP2 240544Z 15006KT 18/11 A2984 RMK A01 T01760114  RH  067%=      5-min Rain = 0
KSP2 240545Z 15005KT 18/11 A2984 RMK A01 T01760114  RH  067%=      5-min Rain = 0
KSP2 240546Z 15005KT 18/11 A2984 RMK A01 T01760114  RH  067%=      5-min Rain = 0
KSP2 240547Z 15005KT 18/11 A2984 RMK A01 T01760114  RH  067%=      5-min Rain = 0
KSP2 240548Z 15006KT 18/11 A2984 RMK A01 T01750114  RH  067%=      5-min Rain = 0
KSP2 240549Z 16007KT 18/11 A2984 RMK A01 T01750114  RH  067%=      5-min Rain = 0
KSP2 240550Z 16007KT 18/11 A2984 RMK A01 T01750114  RH  067%=      5-min Rain = 0
KSP2 240551Z 15006KT 17/11 A2984 RMK A01 T01740113  RH  067%=      5-min Rain = 0
KSP2 240552Z 15006KT 18/11 A2984 RMK A01 T01750114  RH  067%=      5-min Rain = 0
KSP2 240553Z 15006KT 18/11 A2984 RMK A01 T01750114  RH  067%=      5-min Rain = 0
KSP2 240554Z 15007KT 18/11 A2984 RMK A01 T01750113  RH  067%=      5-min Rain = 0
KSP2 240555Z 16006KT 18/11 A2984 RMK A01 T01750113  RH  067%=      5-min Rain = 0
KSP2 240556Z 16006KT 18/11 A2984 RMK A01 T01750113  RH  067%=      5-min Rain = 0
KSP2 240557Z 16006KT 18/11 A2984 RMK A01 T01750113  RH  067%=      5-min Rain = 0
KSP2 240558Z 16006KT 17/11 A2984 RMK A01 T01740113  RH  067%=      5-min Rain = 0
KSP2 240559Z 17007KT 18/11 A2984 RMK A01 T01750113  RH  067%=      5-min Rain = 0
KSP2 240600Z 17006KT 18/11 A2984 RMK A01 T01750113  RH  067%=      5-min Rain = 0
KSP2 240601Z 17006KT 17/11 A2984 RMK A01 T01740112  RH  067%=      5-min Rain = 0
KSP2 240602Z 17006KT 17/11 A2984 RMK A01 T01740112  RH  067%=      5-min Rain = 0
KSP2 240603Z 17006KT 17/11 A2984 RMK A01 T01740112  RH  067%=      5-min Rain = 0
KSP2 240604Z 17005KT 17/11 A2984 RMK A01 T01740112  RH  067%=      5-min Rain = 0
KSP2 240605Z 17006KT 17/11 A2985 RMK A01 T01740112  RH  067%=      5-min Rain = 0
KSP2 240606Z 17006KT 17/11 A2985 RMK A01 T01730111  RH  067%=      5-min Rain = 0
KSP2 240607Z 17007KT 17/11 A2985 RMK A01 T01730111  RH  067%=      5-min Rain = 0
KSP2 240608Z 18007KT 17/11 A2985 RMK A01 T01740111  RH  067%=      5-min Rain = 0
KSP2 240609Z 18007KT 17/11 A2985 RMK A01 T01740111  RH  067%=      5-min Rain = 0
KSP2 240610Z 18007KT 17/11 A2985 RMK A01 T01740111  RH  067%=      5-min Rain = 0
KSP2 240611Z 17008KT 17/11 A2985 RMK A01 T01730111  RH  067%=      5-min Rain = 0
KSP2 240612Z 17008KT 17/11 A2985 RMK A01 T01740110  RH  066%=      5-min Rain = 0
KSP2 240613Z 16008KT 18/11 A2985 RMK A01 T01750109  RH  066%=      5-min Rain = 0
KSP2 240614Z 17007KT 18/11 A2985 RMK A01 T01760109  RH  065%=      5-min Rain = 0
KSP2 240615Z 17008KT 18/11 A2985 RMK A01 T01760109  RH  065%=      5-min Rain = 0
KSP2 240616Z 17009KT 18/11 A2985 RMK A01 T01770109  RH  064%=      5-min Rain = 0
KSP2 240617Z 17007KT 18/11 A2985 RMK A01 T01780109  RH  064%=      5-min Rain = 0
KSP2 240618Z 17007KT 18/11 A2985 RMK A01 T01780109  RH  064%=      5-min Rain = 0
KSP2 240619Z 17007KT 18/11 A2985 RMK A01 T01780109  RH  064%=      5-min Rain = 0
KSP2 240620Z 17006KT 18/11 A2985 RMK A01 T01780109  RH  064%=      5-min Rain = 0
KSP2 240621Z 17007KT 18/11 A2985 RMK A01 T01770109  RH  064%=      5-min Rain = 0
KSP2 240622Z 16007KT 18/11 A2985 RMK A01 T01770109  RH  064%=      5-min Rain = 0
KSP2 240623Z 16007KT 18/11 A2985 RMK A01 T01770109  RH  064%=      5-min Rain = 0
KSP2 240624Z 16008KT 18/11 A2985 RMK A01 T01770108  RH  064%=      5-min Rain = 0
KSP2 240625Z 15008KT 18/11 A2985 RMK A01 T01770108  RH  064%=      5-min Rain = 0
KSP2 240626Z 15008KT 18/11 A2985 RMK A01 T01770107  RH  064%=      5-min Rain = 0
KSP2 240627Z 16008KT 18/11 A2985 RMK A01 T01770107  RH  063%=      5-min Rain = 0
KSP2 240628Z 15008KT 18/11 A2985 RMK A01 T01780107  RH  063%=      5-min Rain = 0
KSP2 240629Z 16008KT 18/11 A2985 RMK A01 T01790107  RH  063%=      5-min Rain = 0
KSP2 240630Z 15008KT 18/11 A2985 RMK A01 T01790106  RH  062%=      5-min Rain = 0
KSP2 240631Z 16008KT 18/11 A2985 RMK A01 T01800106  RH  062%=      5-min Rain = 0
KSP2 240632Z 16008KT 18/11 A2986 RMK A01 T01800107  RH  062%=      5-min Rain = 0
KSP2 240633Z 16007KT 18/11 A2986 RMK A01 T01800106  RH  062%=      5-min Rain = 0
KSP2 240634Z 16007KT 18/11 A2986 RMK A01 T01810106  RH  062%=      5-min Rain = 0
KSP2 240635Z 16007KT 18/11 A2986 RMK A01 T01810107  RH  062%=      5-min Rain = 0
KSP2 240636Z 17007KT 18/11 A2986 RMK A01 T01800106  RH  062%=      5-min Rain = 0
KSP2 240637Z 17008KT 18/11 A2986 RMK A01 T01800106  RH  062%=      5-min Rain = 0
KSP2 240638Z 17007KT 18/11 A2986 RMK A01 T01800106  RH  062%=      5-min Rain = 0
KSP2 240639Z 18007KT 18/11 A2986 RMK A01 T01810105  RH  061%=      5-min Rain = 0
KSP2 240640Z 18007KT 18/11 A2986 RMK A01 T01810105  RH  061%=      5-min Rain = 0
KSP2 240641Z 17008KT 18/11 A2986 RMK A01 T01810106  RH  061%=      5-min Rain = 0
KSP2 240642Z 17009KT 18/11 A2986 RMK A01 T01810105  RH  061%=      5-min Rain = 0
KSP2 240643Z 17008KT 18/10 A2986 RMK A01 T01810104  RH  061%=      5-min Rain = 0
KSP2 240644Z 18009KT 18/10 A2986 RMK A01 T01810104  RH  061%=      5-min Rain = 0
KSP2 240645Z 18008KT 18/10 A2986 RMK A01 T01820104  RH  060%=      5-min Rain = 0
KSP2 240646Z 17009KT 18/10 A2986 RMK A01 T01820104  RH  060%=      5-min Rain = 0
KSP2 240647Z 17009KT 18/10 A2986 RMK A01 T01820104  RH  060%=      5-min Rain = 0
KSP2 240648Z 16009KT 18/10 A2986 RMK A01 T01820104  RH  060%=      5-min Rain = 0
KSP2 240649Z 16010KT 18/10 A2986 RMK A01 T01820103  RH  060%=      5-min Rain = 0
KSP2 240650Z 17010KT 18/10 A2986 RMK A01 T01830104  RH  060%=      5-min Rain = 0
KSP2 240651Z 16008KT 18/10 A2986 RMK A01 T01830103  RH  060%=      5-min Rain = 0
KSP2 240652Z 16007KT 18/10 A2986 RMK A01 T01830103  RH  059%=      5-min Rain = 0
KSP2 240653Z 17007KT 18/10 A2986 RMK A01 T01830103  RH  060%=      5-min Rain = 0
KSP2 240654Z 17008KT 18/10 A2986 RMK A01 T01830103  RH  060%=      5-min Rain = 0
KSP2 240655Z 17008KT 18/10 A2986 RMK A01 T01830103  RH  060%=      5-min Rain = 0
KSP2 240656Z 17008KT 18/10 A2986 RMK A01 T01830104  RH  060%=      5-min Rain = 0
KSP2 240657Z 17007KT 18/10 A2986 RMK A01 T01820104  RH  060%=      5-min Rain = 0
KSP2 240658Z 17008KT 18/10 A2986 RMK A01 T01810104  RH  061%=      5-min Rain = 0
KSP2 240659Z 17008KT 18/11 A2986 RMK A01 T01810105  RH  061%=      5-min Rain = 0
KSP2 240700Z 18009KT 18/11 A2986 RMK A01 T01810106  RH  061%=      5-min Rain = 0
KSP2 240701Z 18008KT 18/11 A2986 RMK A01 T01800105  RH  062%=      5-min Rain = 0
KSP2 240702Z 18008KT 18/11 A2986 RMK A01 T01800106  RH  062%=      5-min Rain = 0
KSP2 240703Z 18009KT 18/11 A2986 RMK A01 T01800107  RH  062%=      5-min Rain = 0
KSP2 240704Z 18007KT 18/11 A2986 RMK A01 T01790107  RH  062%=      5-min Rain = 0
KSP2 240705Z 17008KT 18/11 A2986 RMK A01 T01790107  RH  063%=      5-min Rain = 0
KSP2 240706Z 16007KT 18/11 A2986 RMK A01 T01790108  RH  063%=      5-min Rain = 0
KSP2 240707Z 17010KT 18/11 A2986 RMK A01 T01790108  RH  063%=      5-min Rain = 0
KSP2 240708Z 17010KT 18/11 A2986 RMK A01 T01800109  RH  063%=      5-min Rain = 0
KSP2 240709Z 18010KT 18/11 A2987 RMK A01 T01800109  RH  063%=      5-min Rain = 0
KSP2 240710Z 18010KT 18/11 A2987 RMK A01 T01800110  RH  063%=      5-min Rain = 0
KSP2 240711Z 17009KT 18/11 A2987 RMK A01 T01800109  RH  063%=      5-min Rain = 0
KSP2 240712Z 17008KT 18/11 A2986 RMK A01 T01800109  RH  063%=      5-min Rain = 0
KSP2 240713Z 17008KT 18/11 A2986 RMK A01 T01790109  RH  064%=      5-min Rain = 0
KSP2 240714Z 17008KT 18/11 A2986 RMK A01 T01790109  RH  064%=      5-min Rain = 0
KSP2 240715Z 17009KT 18/11 A2986 RMK A01 T01790110  RH  064%=      5-min Rain = 0
KSP2 240716Z 17008KT 18/11 A2986 RMK A01 T01780110  RH  064%=      5-min Rain = 0
KSP2 240717Z 17008KT 18/11 A2986 RMK A01 T01780110  RH  064%=      5-min Rain = 0
KSP2 240718Z 18007KT 18/11 A2986 RMK A01 T01780110  RH  065%=      5-min Rain = 0
KSP2 240719Z 18008KT 18/11 A2986 RMK A01 T01770110  RH  065%=      5-min Rain = 0
KSP2 240720Z 18007KT 18/11 A2986 RMK A01 T01770110  RH  065%=      5-min Rain = 0
KSP2 240721Z 18008KT 18/11 A2986 RMK A01 T01770110  RH  065%=      5-min Rain = 0
KSP2 240722Z 17007KT 18/11 A2986 RMK A01 T01760110  RH  065%=      5-min Rain = 0
KSP2 240723Z 16007KT 18/11 A2986 RMK A01 T01760110  RH  065%=      5-min Rain = 0
KSP2 240724Z 18007KT 18/11 A2986 RMK A01 T01760111  RH  065%=      5-min Rain = 0
KSP2 240725Z 18008KT 18/11 A2986 RMK A01 T01760111  RH  066%=      5-min Rain = 0
KSP2 240726Z 18009KT 18/11 A2986 RMK A01 T01760111  RH  066%=      5-min Rain = 0
KSP2 240727Z 17009KT 18/11 A2986 RMK A01 T01760111  RH  066%=      5-min Rain = 0
KSP2 240728Z 17008KT 18/11 A2986 RMK A01 T01760112  RH  066%=      5-min Rain = 0
KSP2 240729Z 17009KT 18/11 A2986 RMK A01 T01760112  RH  066%=      5-min Rain = 0
KSP2 240730Z 16008KT 18/11 A2986 RMK A01 T01760112  RH  066%=      5-min Rain = 0
KSP2 240731Z 16008KT 18/11 A2986 RMK A01 T01760113  RH  066%=      5-min Rain = 0
KSP2 240732Z 17008KT 18/11 A2986 RMK A01 T01760113  RH  067%=      5-min Rain = 0
KSP2 240733Z 16008KT 18/11 A2986 RMK A01 T01750113  RH  067%=      5-min Rain = 0
KSP2 240734Z 16008KT 18/11 A2986 RMK A01 T01750114  RH  067%=      5-min Rain = 0
KSP2 240735Z 16009KT 18/11 A2986 RMK A01 T01750114  RH  067%=      5-min Rain = 0
KSP2 240736Z 16009KT 17/11 A2986 RMK A01 T01740114  RH  068%=      5-min Rain = 0
KSP2 240737Z 16010KT 17/11 A2986 RMK A01 T01740114  RH  068%=      5-min Rain = 0
KSP2 240738Z 16009KT 17/11 A2986 RMK A01 T01740114  RH  068%=      5-min Rain = 0
KSP2 240739Z 16009KT 17/12 A2986 RMK A01 T01740115  RH  068%=      5-min Rain = 0
KSP2 240740Z 16008KT 17/12 A2986 RMK A01 T01740115  RH  068%=      5-min Rain = 0
KSP2 240741Z 17007KT 17/12 A2986 RMK A01 T01740115  RH  068%=      5-min Rain = 0
KSP2 240742Z 17008KT 17/12 A2986 RMK A01 T01730115  RH  069%=      5-min Rain = 0
KSP2 240743Z 17007KT 17/12 A2986 RMK A01 T01720115  RH  069%=      5-min Rain = 0
KSP2 240744Z 16006KT 17/12 A2986 RMK A01 T01720115  RH  069%=      5-min Rain = 0
KSP2 240745Z 17006KT 17/12 A2986 RMK A01 T01710115  RH  069%=      5-min Rain = 0
KSP2 240746Z 17006KT 17/12 A2986 RMK A01 T01710115  RH  070%=      5-min Rain = 0
KSP2 240747Z 17006KT 17/12 A2986 RMK A01 T01700115  RH  070%=      5-min Rain = 0
KSP2 240748Z 16006KT 17/12 A2986 RMK A01 T01690115  RH  070%=      5-min Rain = 0
KSP2 240749Z 16006KT 17/12 A2986 RMK A01 T01690115  RH  070%=      5-min Rain = 0
KSP2 240750Z 16007KT 17/12 A2986 RMK A01 T01680115  RH  071%=      5-min Rain = 0
KSP2 240751Z 16007KT 17/12 A2986 RMK A01 T01680115  RH  071%=      5-min Rain = 0
KSP2 240752Z 17006KT 17/12 A2986 RMK A01 T01670115  RH  071%=      5-min Rain = 0
KSP2 240753Z 16007KT 17/12 A2986 RMK A01 T01660115  RH  072%=      5-min Rain = 0
KSP2 240754Z 16007KT 17/11 A2986 RMK A01 T01650114  RH  072%=      5-min Rain = 0
KSP2 240755Z 16007KT 17/12 A2986 RMK A01 T01660115  RH  072%=      5-min Rain = 0
KSP2 240756Z 16007KT 17/12 A2986 RMK A01 T01650115  RH  072%=      5-min Rain = 0
KSP2 240757Z 16006KT 17/12 A2986 RMK A01 T01650115  RH  072%=      5-min Rain = 0
KSP2 240758Z 15006KT 16/12 A2986 RMK A01 T01640115  RH  073%=      5-min Rain = 0
KSP2 240759Z 15006KT 16/12 A2986 RMK A01 T01640115  RH  073%=      5-min Rain = 0
KSP2 240800Z 16007KT 16/12 A2986 RMK A01 T01630115  RH  073%=      5-min Rain = 0
KSP2 240801Z 16006KT 16/12 A2986 RMK A01 T01630115  RH  073%=      5-min Rain = 0
KSP2 240802Z 15006KT 16/12 A2986 RMK A01 T01620115  RH  074%=      5-min Rain = 0
KSP2 240803Z 15006KT 16/12 A2986 RMK A01 T01620115  RH  074%=      5-min Rain = 0
KSP2 240804Z 15005KT 16/12 A2986 RMK A01 T01610115  RH  074%=      5-min Rain = 0
KSP2 240805Z 15005KT 16/12 A2986 RMK A01 T01610115  RH  074%=      5-min Rain = 0
KSP2 240806Z 16004KT 16/12 A2986 RMK A01 T01610116  RH  075%=      5-min Rain = 0
KSP2 240807Z 16004KT 16/12 A2986 RMK A01 T01600116  RH  075%=      5-min Rain = 0
KSP2 240808Z 16003KT 16/12 A2986 RMK A01 T01590115  RH  075%=      5-min Rain = 0
KSP2 240809Z 16003KT 16/12 A2986 RMK A01 T01590115  RH  075%=      5-min Rain = 0
KSP2 240810Z 17004KT 16/12 A2986 RMK A01 T01580115  RH  076%=      5-min Rain = 0
KSP2 240811Z 17003KT 16/12 A2986 RMK A01 T01580115  RH  076%=      5-min Rain = 0
KSP2 240812Z 18003KT 16/12 A2986 RMK A01 T01580115  RH  076%=      5-min Rain = 0
KSP2 240813Z 18004KT 16/12 A2986 RMK A01 T01570115  RH  076%=      5-min Rain = 0
KSP2 240814Z 18005KT 16/12 A2986 RMK A01 T01570115  RH  076%=      5-min Rain = 0
KSP2 240815Z 18006KT 16/12 A2986 RMK A01 T01570115  RH  076%=      5-min Rain = 0
KSP2 240816Z 17006KT 16/12 A2986 RMK A01 T01570117  RH  077%=      5-min Rain = 0
KSP2 240817Z 17007KT 16/12 A2986 RMK A01 T01570118  RH  078%=      5-min Rain = 0
KSP2 240818Z 17006KT 16/12 A2986 RMK A01 T01570118  RH  078%=      5-min Rain = 0
KSP2 240819Z 17006KT 16/12 A2986 RMK A01 T01580119  RH  078%=      5-min Rain = 0
KSP2 240820Z 17005KT 16/12 A2986 RMK A01 T01570119  RH  078%=      5-min Rain = 0
KSP2 240821Z 17004KT 16/12 A2986 RMK A01 T01570120  RH  078%=      5-min Rain = 0
KSP2 240822Z 17004KT 16/12 A2986 RMK A01 T01560119  RH  079%=      5-min Rain = 0
KSP2 240823Z 17005KT 16/12 A2986 RMK A01 T01560120  RH  079%=      5-min Rain = 0
KSP2 240824Z 17005KT 16/12 A2986 RMK A01 T01550119  RH  079%=      5-min Rain = 0
KSP2 240825Z 18005KT 16/12 A2986 RMK A01 T01550120  RH  080%=      5-min Rain = 0
KSP2 240826Z 17005KT 16/12 A2986 RMK A01 T01550120  RH  080%=      5-min Rain = 0
KSP2 240827Z 17004KT 16/12 A2986 RMK A01 T01560121  RH  080%=      5-min Rain = 0
KSP2 240828Z 17005KT 16/12 A2986 RMK A01 T01560121  RH  080%=      5-min Rain = 0
KSP2 240829Z 17006KT 16/12 A2986 RMK A01 T01560122  RH  080%=      5-min Rain = 0
KSP2 240830Z 17006KT 16/12 A2986 RMK A01 T01560123  RH  080%=      5-min Rain = 0
KSP2 240831Z 18007KT 16/12 A2986 RMK A01 T01570123  RH  080%=      5-min Rain = 0
KSP2 240832Z 17006KT 16/12 A2986 RMK A01 T01570124  RH  080%=      5-min Rain = 0
KSP2 240833Z 17006KT 16/12 A2986 RMK A01 T01570123  RH  080%=      5-min Rain = 0
KSP2 240834Z 18006KT 16/12 A2986 RMK A01 T01570124  RH  081%=      5-min Rain = 0
KSP2 240835Z 17006KT 16/12 A2986 RMK A01 T01570124  RH  081%=      5-min Rain = 0
KSP2 240836Z 17006KT 16/12 A2986 RMK A01 T01570124  RH  081%=      5-min Rain = 0
KSP2 240837Z 17006KT 16/12 A2986 RMK A01 T01560124  RH  081%=      5-min Rain = 0
KSP2 240838Z 15008G13KT 16/12 A2986 RMK A01 T01560124  RH  081%=      5-min Rain = 0
KSP2 240839Z 16006KT 16/12 A2986 RMK A01 T01570124  RH  081%=      5-min Rain = 0
KSP2 240840Z 16005KT 16/13 A2986 RMK A01 T01580125  RH  081%=      5-min Rain = 0
KSP2 240841Z 17005KT 16/13 A2987 RMK A01 T01570125  RH  081%=      5-min Rain = 0
KSP2 240842Z 17005KT 16/12 A2987 RMK A01 T01560124  RH  081%=      5-min Rain = 0
KSP2 240843Z 17005KT 15/12 A2986 RMK A01 T01540124  RH  082%=      5-min Rain = 0
KSP2 240844Z 17005KT 15/12 A2986 RMK A01 T01530124  RH  082%=      5-min Rain = 0
KSP2 240845Z 17005KT 15/12 A2986 RMK A01 T01530124  RH  083%=      5-min Rain = 0
KSP2 240846Z 17005KT 15/12 A2986 RMK A01 T01520124  RH  083%=      5-min Rain = 0
KSP2 240847Z 17006KT 15/12 A2986 RMK A01 T01520124  RH  083%=      5-min Rain = 0
KSP2 240848Z 17006KT 15/12 A2986 RMK A01 T01510124  RH  084%=      5-min Rain = 0
KSP2 240849Z 16006KT 15/12 A2986 RMK A01 T01510124  RH  084%=      5-min Rain = 0
KSP2 240850Z 16006KT 15/13 A2986 RMK A01 T01510125  RH  085%=      5-min Rain = 0
KSP2 240851Z 17007KT 15/13 A2986 RMK A01 T01500125  RH  085%=      5-min Rain = 0
KSP2 240852Z 17007KT 15/13 A2987 RMK A01 T01500125  RH  085%=      5-min Rain = 0
KSP2 240853Z 16007KT 15/13 A2987 RMK A01 T01510126  RH  085%=      5-min Rain = 0
KSP2 240854Z 16007KT 15/13 A2987 RMK A01 T01500126  RH  085%=      5-min Rain = 0
KSP2 240855Z 16008KT 15/13 A2987 RMK A01 T01510127  RH  085%=      5-min Rain = 0
KSP2 240856Z 16006KT 15/13 A2987 RMK A01 T01510127  RH  085%=      5-min Rain = 0
KSP2 240857Z 16006KT 15/13 A2986 RMK A01 T01520127  RH  085%=      5-min Rain = 0
KSP2 240858Z 17005KT 15/13 A2986 RMK A01 T01520128  RH  085%=      5-min Rain = 0
KSP2 240859Z 16007KT 15/13 A2987 RMK A01 T01530128  RH  085%=      5-min Rain = 0
KSP2 240900Z 16007KT 15/13 A2987 RMK A01 T01530128  RH  085%=      5-min Rain = 0
KSP2 240901Z 16006KT 15/13 A2987 RMK A01 T01530128  RH  085%=      5-min Rain = 0
KSP2 240902Z 17005KT 15/13 A2987 RMK A01 T01530128  RH  085%=      5-min Rain = 0
KSP2 240903Z 17005KT 15/13 A2987 RMK A01 T01530129  RH  086%=      5-min Rain = 0
KSP2 240904Z 17005KT 15/13 A2987 RMK A01 T01530129  RH  086%=      5-min Rain = 0
KSP2 240905Z 16006KT 15/13 A2987 RMK A01 T01520129  RH  086%=      5-min Rain = 0
KSP2 240906Z 16005KT 15/13 A2987 RMK A01 T01520128  RH  086%=      5-min Rain = 0
KSP2 240907Z 16005KT 15/13 A2987 RMK A01 T01520129  RH  086%=      5-min Rain = 0
KSP2 240908Z 16006KT 15/13 A2987 RMK A01 T01520129  RH  086%=      5-min Rain = 0
KSP2 240909Z 16006KT 15/13 A2987 RMK A01 T01520128  RH  086%=      5-min Rain = 0
KSP2 240910Z 16006KT 15/13 A2987 RMK A01 T01510128  RH  086%=      5-min Rain = 0
KSP2 240911Z 16005KT 15/13 A2987 RMK A01 T01510128  RH  086%=      5-min Rain = 0
KSP2 240912Z 16005KT 15/13 A2987 RMK A01 T01500127  RH  086%=      5-min Rain = 0
KSP2 240913Z 17004KT 15/13 A2987 RMK A01 T01500128  RH  087%=      5-min Rain = 0
KSP2 240914Z 17004KT 15/13 A2987 RMK A01 T01490127  RH  087%=      5-min Rain = 0
KSP2 240915Z 17004KT 15/13 A2987 RMK A01 T01480127  RH  087%=      5-min Rain = 0
KSP2 240916Z 17004KT 15/13 A2987 RMK A01 T01480127  RH  087%=      5-min Rain = 0
KSP2 240917Z 17004KT 15/13 A2987 RMK A01 T01470127  RH  087%=      5-min Rain = 0
KSP2 240918Z 16004KT 15/13 A2986 RMK A01 T01470127  RH  088%=      5-min Rain = 0
KSP2 240919Z 16004KT 15/13 A2987 RMK A01 T01460126  RH  088%=      5-min Rain = 0
KSP2 240920Z 17005KT 15/13 A2987 RMK A01 T01460126  RH  088%=      5-min Rain = 0
KSP2 240921Z 17005KT 15/13 A2987 RMK A01 T01460126  RH  088%=      5-min Rain = 0
KSP2 240922Z 17005KT 15/13 A2986 RMK A01 T01450126  RH  088%=      5-min Rain = 0
KSP2 240923Z 17005KT 15/13 A2986 RMK A01 T01450126  RH  088%=      5-min Rain = 0
KSP2 240924Z 18005KT 15/13 A2986 RMK A01 T01450126  RH  088%=      5-min Rain = 0
KSP2 240925Z 18005KT 14/13 A2986 RMK A01 T01440126  RH  088%=      5-min Rain = 0
KSP2 240926Z 17004KT 14/13 A2986 RMK A01 T01440125  RH  089%=      5-min Rain = 0
KSP2 240927Z 16004KT 14/13 A2986 RMK A01 T01440125  RH  089%=      5-min Rain = 0
KSP2 240928Z 16005KT 14/13 A2986 RMK A01 T01440125  RH  089%=      5-min Rain = 0
KSP2 240929Z 16005KT 14/13 A2986 RMK A01 T01430125  RH  089%=      5-min Rain = 0
KSP2 240930Z 16005KT 14/13 A2986 RMK A01 T01430125  RH  089%=      5-min Rain = 0
KSP2 240931Z 16005KT 14/13 A2986 RMK A01 T01430125  RH  089%=      5-min Rain = 0
KSP2 240932Z 16005KT 14/13 A2986 RMK A01 T01430125  RH  089%=      5-min Rain = 0
KSP2 240933Z 17005KT 14/13 A2986 RMK A01 T01430125  RH  089%=      5-min Rain = 0
KSP2 240934Z 17005KT 14/13 A2986 RMK A01 T01430125  RH  089%=      5-min Rain = 0
KSP2 240935Z 17005KT 14/12 A2986 RMK A01 T01420124  RH  089%=      5-min Rain = 0
KSP2 240936Z 17004KT 14/12 A2986 RMK A01 T01420124  RH  089%=      5-min Rain = 0
KSP2 240937Z 17004KT 14/12 A2986 RMK A01 T01420124  RH  089%=      5-min Rain = 0
KSP2 240938Z 17004KT 14/12 A2986 RMK A01 T01410124  RH  089%=      5-min Rain = 0
KSP2 240939Z 17004KT 14/12 A2986 RMK A01 T01410124  RH  090%=      5-min Rain = 0
KSP2 240940Z 16004KT 14/12 A2986 RMK A01 T01410124  RH  090%=      5-min Rain = 0
KSP2 240941Z 15004KT 14/12 A2986 RMK A01 T01400124  RH  090%=      5-min Rain = 0
KSP2 240942Z 15004KT 14/12 A2986 RMK A01 T01400124  RH  090%=      5-min Rain = 0
KSP2 240943Z 16004KT 14/12 A2986 RMK A01 T01400124  RH  090%=      5-min Rain = 0
KSP2 240944Z 17004KT 14/12 A2986 RMK A01 T01400124  RH  090%=      5-min Rain = 0
KSP2 240945Z 18005KT 14/12 A2986 RMK A01 T01390124  RH  090%=      5-min Rain = 0
KSP2 240946Z 19004KT 14/12 A2986 RMK A01 T01390124  RH  090%=      5-min Rain = 0
KSP2 240947Z 18004KT 14/12 A2986 RMK A01 T01390123  RH  090%=      5-min Rain = 0
KSP2 240948Z 17004KT 14/12 A2986 RMK A01 T01390122  RH  090%=      5-min Rain = 0
KSP2 240949Z 17004KT 14/12 A2986 RMK A01 T01380122  RH  090%=      5-min Rain = 0
KSP2 240950Z 18004KT 14/12 A2986 RMK A01 T01380122  RH  090%=      5-min Rain = 0
KSP2 240951Z 18005KT 14/12 A2986 RMK A01 T01370122  RH  091%=      5-min Rain = 0
KSP2 240952Z 17004KT 14/12 A2986 RMK A01 T01370123  RH  091%=      5-min Rain = 0
KSP2 240953Z 16004KT 14/12 A2986 RMK A01 T01370123  RH  091%=      5-min Rain = 0
KSP2 240954Z 16004KT 14/12 A2986 RMK A01 T01370122  RH  091%=      5-min Rain = 0
KSP2 240955Z 17004KT 14/12 A2986 RMK A01 T01370122  RH  091%=      5-min Rain = 0
KSP2 240956Z 18004KT 14/12 A2986 RMK A01 T01370123  RH  091%=      5-min Rain = 0
KSP2 240957Z 18004KT 14/12 A2986 RMK A01 T01370123  RH  091%=      5-min Rain = 0
KSP2 240958Z 19004KT 14/12 A2986 RMK A01 T01370122  RH  091%=      5-min Rain = 0
KSP2 240959Z 20004KT 14/12 A2986 RMK A01 T01370122  RH  091%=      5-min Rain = 0
KSP2 241000Z 20004KT 14/12 A2986 RMK A01 T01360121  RH  091%=      5-min Rain = 0
KSP2 241001Z 19004KT 14/12 A2986 RMK A01 T01360121  RH  091%=      5-min Rain = 0
KSP2 241002Z 20004KT 14/12 A2986 RMK A01 T01360121  RH  091%=      5-min Rain = 0
KSP2 241003Z 20004KT 14/12 A2986 RMK A01 T01360121  RH  091%=      5-min Rain = 0
KSP2 241004Z 20004KT 14/12 A2986 RMK A01 T01360120  RH  090%=      5-min Rain = 0
KSP2 241005Z 19004KT 14/12 A2985 RMK A01 T01350120  RH  091%=      5-min Rain = 0
KSP2 241006Z 18004KT 14/12 A2985 RMK A01 T01350120  RH  091%=      5-min Rain = 0
KSP2 241007Z 18004KT 14/12 A2985 RMK A01 T01350121  RH  091%=      5-min Rain = 0
KSP2 241008Z 19004KT 14/12 A2985 RMK A01 T01350121  RH  091%=      5-min Rain = 0
KSP2 241009Z 20004KT 14/12 A2985 RMK A01 T01350121  RH  091%=      5-min Rain = 0
KSP2 241010Z 21004KT 14/12 A2985 RMK A01 T01350120  RH  091%=      5-min Rain = 0
KSP2 241011Z 21004KT 13/12 A2985 RMK A01 T01340119  RH  091%=      5-min Rain = 0
KSP2 241012Z 21005KT 13/12 A2985 RMK A01 T01330119  RH  091%=      5-min Rain = 0
KSP2 241013Z 21005KT 13/12 A2985 RMK A01 T01330120  RH  092%=      5-min Rain = 0
KSP2 241014Z 20004KT 13/12 A2985 RMK A01 T01330120  RH  092%=      5-min Rain = 0
KSP2 241015Z 20004KT 13/12 A2985 RMK A01 T01330120  RH  092%=      5-min Rain = 0
KSP2 241016Z 20004KT 13/12 A2985 RMK A01 T01330120  RH  092%=      5-min Rain = 0
KSP2 241017Z 20004KT 13/12 A2985 RMK A01 T01330119  RH  091%=      5-min Rain = 0
KSP2 241018Z 21004KT 13/12 A2985 RMK A01 T01330119  RH  091%=      5-min Rain = 0
KSP2 241019Z 20004KT 13/12 A2985 RMK A01 T01320119  RH  092%=      5-min Rain = 0
KSP2 241020Z 20004KT 13/12 A2985 RMK A01 T01320119  RH  092%=      5-min Rain = 0
KSP2 241021Z 20004KT 13/12 A2985 RMK A01 T01320119  RH  092%=      5-min Rain = 0
KSP2 241022Z 20004KT 13/12 A2986 RMK A01 T01320119  RH  092%=      5-min Rain = 0
KSP2 241023Z 20004KT 13/12 A2986 RMK A01 T01320119  RH  092%=      5-min Rain = 0
KSP2 241024Z 20004KT 13/12 A2986 RMK A01 T01320119  RH  092%=      5-min Rain = 0
KSP2 241025Z 20004KT 13/12 A2986 RMK A01 T01310118  RH  092%=      5-min Rain = 0
KSP2 241026Z 19004KT 13/12 A2986 RMK A01 T01320119  RH  092%=      5-min Rain = 0
KSP2 241027Z 20004KT 13/12 A2986 RMK A01 T01310118  RH  092%=      5-min Rain = 0
KSP2 241028Z 20004KT 13/12 A2986 RMK A01 T01310119  RH  092%=      5-min Rain = 0
KSP2 241029Z 20004KT 13/12 A2986 RMK A01 T01310119  RH  092%=      5-min Rain = 0
KSP2 241030Z 19004KT 13/12 A2986 RMK A01 T01310119  RH  092%=      5-min Rain = 0
KSP2 241031Z 18004KT 13/12 A2986 RMK A01 T01310118  RH  092%=      5-min Rain = 0
KSP2 241032Z 18004KT 13/12 A2986 RMK A01 T01310119  RH  092%=      5-min Rain = 0
KSP2 241033Z 19005KT 13/12 A2986 RMK A01 T01320119  RH  092%=      5-min Rain = 0
KSP2 241034Z 19005KT 13/12 A2986 RMK A01 T01320119  RH  092%=      5-min Rain = 0
KSP2 241035Z 18006KT 13/12 A2986 RMK A01 T01330119  RH  091%=      5-min Rain = 0
KSP2 241036Z 18005KT 13/12 A2986 RMK A01 T01340119  RH  091%=      5-min Rain = 0
KSP2 241037Z 19006KT 13/12 A2986 RMK A01 T01340120  RH  091%=      5-min Rain = 0
KSP2 241038Z 18006KT 14/12 A2986 RMK A01 T01350120  RH  091%=      5-min Rain = 0
KSP2 241039Z 18005KT 14/12 A2986 RMK A01 T01350120  RH  091%=      5-min Rain = 0
KSP2 241040Z 17005KT 14/12 A2986 RMK A01 T01350120  RH  091%=      5-min Rain = 0
KSP2 241041Z 17006KT 14/12 A2986 RMK A01 T01360120  RH  090%=      5-min Rain = 0
KSP2 241042Z 18006KT 14/12 A2986 RMK A01 T01360120  RH  090%=      5-min Rain = 0
KSP2 241043Z 18007KT 14/12 A2986 RMK A01 T01360120  RH  090%=      5-min Rain = 0
KSP2 241044Z 18007KT 14/12 A2986 RMK A01 T01360120  RH  090%=      5-min Rain = 0
KSP2 241045Z 18006KT 14/12 A2986 RMK A01 T01370120  RH  090%=      5-min Rain = 0
KSP2 241046Z 19006KT 14/12 A2986 RMK A01 T01380121  RH  090%=      5-min Rain = 0
KSP2 241047Z 19006KT 14/12 A2986 RMK A01 T01380121  RH  090%=      5-min Rain = 0
KSP2 241048Z 19006KT 14/12 A2986 RMK A01 T01380121  RH  090%=      5-min Rain = 0
KSP2 241049Z 19006KT 14/12 A2986 RMK A01 T01380121  RH  089%=      5-min Rain = 0
KSP2 241050Z 19007KT 14/12 A2986 RMK A01 T01380121  RH  089%=      5-min Rain = 0
KSP2 241051Z 19007KT 14/12 A2986 RMK A01 T01390121  RH  089%=      5-min Rain = 0
KSP2 241052Z 18008KT 14/12 A2986 RMK A01 T01390122  RH  089%=      5-min Rain = 0
KSP2 241053Z 19008KT 14/12 A2986 RMK A01 T01400122  RH  089%=      5-min Rain = 0
KSP2 241054Z 19008KT 14/12 A2986 RMK A01 T01400121  RH  088%=      5-min Rain = 0
KSP2 241055Z 19007KT 14/12 A2986 RMK A01 T01400121  RH  088%=      5-min Rain = 0
KSP2 241056Z 18007KT 14/12 A2986 RMK A01 T01400121  RH  088%=      5-min Rain = 0
KSP2 241057Z 18007KT 14/12 A2986 RMK A01 T01400121  RH  088%=      5-min Rain = 0
KSP2 241058Z 19007KT 14/12 A2986 RMK A01 T01400121  RH  088%=      5-min Rain = 0
KSP2 241059Z 18008KT 14/12 A2986 RMK A01 T01400121  RH  088%=      5-min Rain = 0
KSP2 241100Z 19008KT 14/12 A2986 RMK A01 T01410122  RH  088%=      5-min Rain = 0
KSP2 241101Z 18009KT 14/12 A2986 RMK A01 T01420122  RH  088%=      5-min Rain = 0
KSP2 241102Z 18008KT 14/12 A2986 RMK A01 T01420122  RH  087%=      5-min Rain = 0
KSP2 241103Z 18009KT 14/12 A2986 RMK A01 T01420122  RH  087%=      5-min Rain = 0
KSP2 241104Z 19009KT 14/12 A2986 RMK A01 T01430121  RH  087%=      5-min Rain = 0
KSP2 241105Z 18010KT 14/12 A2986 RMK A01 T01430122  RH  087%=      5-min Rain = 0
KSP2 241106Z 19008KT 14/12 A2986 RMK A01 T01440122  RH  087%=      5-min Rain = 0
KSP2 241107Z 19009KT 14/12 A2986 RMK A01 T01440121  RH  087%=      5-min Rain = 0
KSP2 241108Z 19008KT 14/12 A2986 RMK A01 T01430122  RH  087%=      5-min Rain = 0
KSP2 241109Z 19008KT 14/12 A2986 RMK A01 T01430122  RH  087%=      5-min Rain = 0
KSP2 241110Z 19009KT 14/12 A2986 RMK A01 T01430122  RH  087%=      5-min Rain = 0
KSP2 241111Z 19009KT 14/12 A2986 RMK A01 T01440122  RH  087%=      5-min Rain = 0
KSP2 241112Z 19009KT 14/12 A2986 RMK A01 T01440122  RH  087%=      5-min Rain = 0
KSP2 241113Z 19009KT 14/12 A2985 RMK A01 T01440122  RH  087%=      5-min Rain = 0
KSP2 241114Z 19009KT 14/12 A2985 RMK A01 T01430121  RH  086%=      5-min Rain = 0
KSP2 241115Z 19009KT 14/12 A2985 RMK A01 T01440121  RH  086%=      5-min Rain = 0
KSP2 241116Z 20009KT 14/12 A2985 RMK A01 T01430121  RH  086%=      5-min Rain = 0
KSP2 241117Z 19009KT 14/12 A2985 RMK A01 T01430121  RH  086%=      5-min Rain = 0
KSP2 241118Z 19008KT 14/12 A2985 RMK A01 T01430121  RH  086%=      5-min Rain = 0
KSP2 241119Z 19008KT 14/12 A2985 RMK A01 T01430121  RH  086%=      5-min Rain = 0
KSP2 241120Z 19009KT 14/12 A2985 RMK A01 T01440121  RH  086%=      5-min Rain = 0
KSP2 241121Z 19010KT 14/12 A2985 RMK A01 T01440121  RH  086%=      5-min Rain = 0
KSP2 241122Z 19009KT 14/12 A2985 RMK A01 T01440121  RH  086%=      5-min Rain = 0
KSP2 241123Z 19009KT 14/12 A2985 RMK A01 T01440120  RH  086%=      5-min Rain = 0
KSP2 241124Z 19009KT 14/12 A2985 RMK A01 T01440121  RH  086%=      5-min Rain = 0
KSP2 241125Z 19008KT 14/12 A2985 RMK A01 T01430121  RH  086%=      5-min Rain = 0
KSP2 241126Z 19009KT 14/12 A2985 RMK A01 T01430121  RH  086%=      5-min Rain = 0
KSP2 241127Z 19009KT 14/12 A2985 RMK A01 T01440121  RH  086%=      5-min Rain = 0
KSP2 241128Z 19010KT 14/12 A2985 RMK A01 T01440121  RH  086%=      5-min Rain = 0
KSP2 241129Z 19010KT 14/12 A2985 RMK A01 T01440121  RH  086%=      5-min Rain = 0
KSP2 241130Z 19009KT 14/12 A2985 RMK A01 T01440121  RH  086%=      5-min Rain = 0
KSP2 241131Z 19010KT 14/12 A2985 RMK A01 T01440121  RH  086%=      5-min Rain = 0
KSP2 241132Z 19010KT 14/12 A2985 RMK A01 T01440121  RH  086%=      5-min Rain = 0
KSP2 241133Z 19009KT 14/12 A2985 RMK A01 T01440121  RH  086%=      5-min Rain = 0
KSP2 241134Z 19010KT 14/12 A2985 RMK A01 T01440121  RH  086%=      5-min Rain = 0
KSP2 241135Z 19010KT 14/12 A2985 RMK A01 T01440121  RH  086%=      5-min Rain = 0
KSP2 241136Z 19011KT 14/12 A2985 RMK A01 T01440121  RH  086%=      5-min Rain = 0
KSP2 241137Z 19010KT 14/12 A2985 RMK A01 T01440121  RH  086%=      5-min Rain = 0
KSP2 241138Z 19010KT 15/12 A2985 RMK A01 T01450121  RH  085%=      5-min Rain = 0
KSP2 241139Z 19011KT 15/12 A2985 RMK A01 T01450121  RH  085%=      5-min Rain = 0
KSP2 241140Z 19011KT 15/12 A2985 RMK A01 T01450121  RH  085%=      5-min Rain = 0
KSP2 241141Z 19013KT 15/12 A2985 RMK A01 T01460121  RH  085%=      5-min Rain = 0
KSP2 241142Z 18013KT 15/12 A2984 RMK A01 T01460121  RH  085%=      5-min Rain = 0
KSP2 241143Z 19012KT 15/12 A2984 RMK A01 T01470121  RH  084%=      5-min Rain = 0
KSP2 241144Z 19013KT 15/12 A2984 RMK A01 T01470120  RH  084%=      5-min Rain = 0
KSP2 241145Z 19012KT 15/12 A2984 RMK A01 T01470120  RH  084%=      5-min Rain = 0
KSP2 241146Z 19014KT 15/12 A2984 RMK A01 T01470120  RH  084%=      5-min Rain = 0
KSP2 241147Z 19013KT 15/12 A2984 RMK A01 T01480120  RH  083%=      5-min Rain = 0
KSP2 241148Z 19014KT 15/12 A2984 RMK A01 T01480120  RH  083%=      5-min Rain = 0
KSP2 241149Z 19012KT 15/12 A2984 RMK A01 T01480119  RH  083%=      5-min Rain = 0
KSP2 241150Z 19012KT 15/12 A2984 RMK A01 T01490120  RH  083%=      5-min Rain = 0
KSP2 241151Z 19012KT 15/12 A2984 RMK A01 T01480120  RH  083%=      5-min Rain = 0
KSP2 241152Z 19011KT 15/12 A2984 RMK A01 T01490120  RH  083%=      5-min Rain = 0
KSP2 241153Z 20011KT 15/12 A2984 RMK A01 T01480119  RH  083%=      5-min Rain = 0
KSP2 241154Z 19010KT 15/12 A2984 RMK A01 T01480119  RH  083%=      5-min Rain = 0
KSP2 241155Z 19012KT 15/12 A2984 RMK A01 T01480119  RH  083%=      5-min Rain = 0
KSP2 241156Z 20010KT 15/12 A2985 RMK A01 T01490119  RH  082%=      5-min Rain = 0
KSP2 241157Z 20010KT 15/12 A2985 RMK A01 T01490119  RH  082%=      5-min Rain = 0
KSP2 241158Z 19010KT 15/12 A2985 RMK A01 T01480119  RH  083%=      5-min Rain = 0
KSP2 241159Z 19010KT 15/12 A2985 RMK A01 T01480119  RH  083%=      5-min Rain = 0
KSP2 241200Z 20010KT 15/12 A2985 RMK A01 T01480119  RH  083%=      5-min Rain = 0
KSP2 241201Z 20010KT 15/12 A2985 RMK A01 T01480119  RH  083%=      5-min Rain = 0
KSP2 241202Z 19010KT 15/12 A2985 RMK A01 T01480119  RH  083%=      5-min Rain = 0
KSP2 241203Z 19011KT 15/12 A2985 RMK A01 T01480119  RH  083%=      5-min Rain = 0
KSP2 241204Z 19008KT 15/12 A2985 RMK A01 T01490120  RH  083%=      5-min Rain = 0
KSP2 241205Z 19010KT 15/12 A2985 RMK A01 T01490120  RH  083%=      5-min Rain = 0
KSP2 241206Z 20009KT 15/12 A2985 RMK A01 T01480119  RH  083%=      5-min Rain = 0
KSP2 241207Z 19009KT 15/12 A2985 RMK A01 T01480119  RH  083%=      5-min Rain = 0
KSP2 241208Z 19010KT 15/12 A2985 RMK A01 T01480119  RH  083%=      5-min Rain = 0
KSP2 241209Z 19010KT 15/12 A2985 RMK A01 T01480119  RH  083%=      5-min Rain = 0
KSP2 241210Z 19010KT 15/12 A2985 RMK A01 T01490119  RH  083%=      5-min Rain = 0
KSP2 241211Z 19010KT 15/12 A2985 RMK A01 T01490119  RH  083%=      5-min Rain = 0
KSP2 241212Z 19010KT 15/12 A2985 RMK A01 T01490119  RH  082%=      5-min Rain = 0
KSP2 241213Z 19009KT 15/12 A2985 RMK A01 T01490119  RH  082%=      5-min Rain = 0
KSP2 241214Z 19010KT 15/12 A2985 RMK A01 T01490119  RH  082%=      5-min Rain = 0
KSP2 241215Z 19010KT 15/12 A2985 RMK A01 T01490119  RH  082%=      5-min Rain = 0
KSP2 241216Z 19010KT 15/12 A2985 RMK A01 T01500119  RH  082%=      5-min Rain = 0
KSP2 241217Z 19010KT 15/12 A2985 RMK A01 T01510119  RH  081%=      5-min Rain = 0
KSP2 241218Z 19010KT 15/12 A2985 RMK A01 T01520120  RH  081%=      5-min Rain = 0
KSP2 241219Z 20009KT 15/12 A2985 RMK A01 T01530120  RH  081%=      5-min Rain = 0
KSP2 241220Z 19010KT 15/12 A2985 RMK A01 T01530120  RH  080%=      5-min Rain = 0
KSP2 241221Z 20010KT 15/12 A2985 RMK A01 T01540120  RH  080%=      5-min Rain = 0
KSP2 241222Z 20010KT 15/12 A2985 RMK A01 T01540120  RH  080%=      5-min Rain = 0
KSP2 241223Z 20011KT 16/12 A2985 RMK A01 T01550120  RH  080%=      5-min Rain = 0
KSP2 241224Z 20010KT 16/12 A2985 RMK A01 T01550121  RH  080%=      5-min Rain = 0
KSP2 241225Z 20012KT 16/12 A2985 RMK A01 T01560121  RH  080%=      5-min Rain = 0
KSP2 241226Z 19011KT 16/12 A2985 RMK A01 T01570121  RH  079%=      5-min Rain = 0
KSP2 241227Z 19011KT 16/12 A2985 RMK A01 T01570121  RH  079%=      5-min Rain = 0
KSP2 241228Z 19011KT 16/12 A2985 RMK A01 T01580122  RH  079%=      5-min Rain = 0
KSP2 241229Z 19011KT 16/12 A2985 RMK A01 T01590122  RH  079%=      5-min Rain = 0
KSP2 241230Z 19011KT 16/12 A2985 RMK A01 T01600122  RH  078%=      5-min Rain = 0
KSP2 241231Z 19010KT 16/12 A2985 RMK A01 T01610122  RH  078%=      5-min Rain = 0
KSP2 241232Z 19012KT 16/12 A2985 RMK A01 T01620122  RH  077%=      5-min Rain = 0
KSP2 241233Z 19010KT 16/12 A2985 RMK A01 T01630122  RH  077%=      5-min Rain = 0
KSP2 241234Z 19011KT 16/12 A2985 RMK A01 T01640123  RH  077%=      5-min Rain = 0
KSP2 241235Z 19011KT 16/12 A2985 RMK A01 T01640123  RH  076%=      5-min Rain = 0
KSP2 241236Z 19011KT 17/12 A2985 RMK A01 T01650123  RH  076%=      5-min Rain = 0
KSP2 241237Z 19010KT 17/12 A2985 RMK A01 T01650123  RH  076%=      5-min Rain = 0
KSP2 241238Z 19010KT 17/12 A2985 RMK A01 T01660123  RH  076%=      5-min Rain = 0
KSP2 241239Z 19012KT 17/12 A2985 RMK A01 T01670123  RH  076%=      5-min Rain = 0
KSP2 241240Z 19011KT 17/12 A2985 RMK A01 T01670123  RH  075%=      5-min Rain = 0
KSP2 241241Z 18011KT 17/12 A2985 RMK A01 T01680123  RH  075%=      5-min Rain = 0
KSP2 241242Z 18012KT 17/12 A2985 RMK A01 T01680123  RH  075%=      5-min Rain = 0
KSP2 241243Z 18013KT 17/12 A2985 RMK A01 T01690123  RH  074%=      5-min Rain = 0
KSP2 241244Z 19013KT 17/12 A2985 RMK A01 T01690123  RH  074%=      5-min Rain = 0
KSP2 241245Z 18016KT 17/12 A2986 RMK A01 T01680123  RH  074%=      5-min Rain = 0
KSP2 241246Z 19013KT 17/12 A2986 RMK A01 T01690123  RH  074%=      5-min Rain = 0
KSP2 241247Z 19012KT 17/12 A2986 RMK A01 T01680123  RH  075%=      5-min Rain = 0
KSP2 241248Z 19010KT 17/12 A2986 RMK A01 T01680123  RH  075%=      5-min Rain = 0
KSP2 241249Z 19012KT 17/12 A2986 RMK A01 T01670123  RH  075%=      5-min Rain = 0
KSP2 241250Z 19011KT 17/12 A2986 RMK A01 T01670123  RH  075%=      5-min Rain = 0
KSP2 241251Z 19010KT 17/12 A2986 RMK A01 T01670123  RH  075%=      5-min Rain = 0
KSP2 241252Z 19009KT 17/12 A2986 RMK A01 T01670124  RH  075%=      5-min Rain = 0
KSP2 241253Z 19008KT 17/12 A2986 RMK A01 T01690124  RH  075%=      5-min Rain = 0
KSP2 241254Z 19012KT 17/12 A2986 RMK A01 T01700124  RH  074%=      5-min Rain = 0
KSP2 241255Z 19013KT 17/12 A2986 RMK A01 T01720124  RH  073%=      5-min Rain = 0
KSP2 241256Z 19011KT 17/12 A2986 RMK A01 T01730124  RH  073%=      5-min Rain = 0
KSP2 241257Z 19011KT 17/12 A2986 RMK A01 T01740124  RH  072%=      5-min Rain = 0
KSP2 241258Z 19011KT 18/13 A2986 RMK A01 T01760125  RH  072%=      5-min Rain = 0
KSP2 241259Z 19011KT 18/13 A2986 RMK A01 T01770125  RH  072%=      5-min Rain = 0
KSP2 241300Z 19011KT 18/13 A2986 RMK A01 T01780125  RH  071%=      5-min Rain = 0
KSP2 241301Z 19013KT 18/13 A2986 RMK A01 T01780126  RH  071%=      5-min Rain = 0
KSP2 241302Z 19014KT 18/13 A2986 RMK A01 T01790125  RH  070%=      5-min Rain = 0
KSP2 241303Z 19013KT 18/13 A2986 RMK A01 T01800125  RH  070%=      5-min Rain = 0
KSP2 241304Z 19011KT 18/13 A2986 RMK A01 T01810126  RH  070%=      5-min Rain = 0
KSP2 241305Z 19014KT 18/13 A2986 RMK A01 T01820126  RH  070%=      5-min Rain = 0
KSP2 241306Z 19016KT 18/13 A2986 RMK A01 T01830125  RH  069%=      5-min Rain = 0
KSP2 241307Z 19013KT 18/13 A2986 RMK A01 T01830125  RH  069%=      5-min Rain = 0
KSP2 241308Z 19013KT 18/13 A2986 RMK A01 T01840125  RH  069%=      5-min Rain = 0
KSP2 241309Z 19017KT 19/13 A2986 RMK A01 T01850125  RH  068%=      5-min Rain = 0
KSP2 241310Z 19015KT 19/12 A2986 RMK A01 T01850124  RH  067%=      5-min Rain = 0
KSP2 241311Z 19014G19KT 19/13 A2986 RMK A01 T01860125  RH  068%=      5-min Rain = 0
KSP2 241312Z 19016KT 19/12 A2986 RMK A01 T01860124  RH  067%=      5-min Rain = 0
KSP2 241313Z 18017KT 19/13 A2986 RMK A01 T01870125  RH  067%=      5-min Rain = 0
KSP2 241314Z 19018KT 19/12 A2986 RMK A01 T01880124  RH  066%=      5-min Rain = 0
KSP2 241315Z 19017KT 19/12 A2986 RMK A01 T01880124  RH  066%=      5-min Rain = 0
KSP2 241316Z 19018KT 19/12 A2986 RMK A01 T01880124  RH  066%=      5-min Rain = 0
KSP2 241317Z 19018KT 19/12 A2986 RMK A01 T01890124  RH  066%=      5-min Rain = 0
KSP2 241318Z 19015KT 19/12 A2986 RMK A01 T01890124  RH  066%=      5-min Rain = 0
KSP2 241319Z 18018KT 19/12 A2985 RMK A01 T01900124  RH  066%=      5-min Rain = 0
KSP2 241320Z 18019KT 19/12 A2985 RMK A01 T01900124  RH  065%=      5-min Rain = 0
KSP2 241321Z 18016KT 19/12 A2985 RMK A01 T01900124  RH  066%=      5-min Rain = 0
KSP2 241322Z 19018KT 19/12 A2985 RMK A01 T01890124  RH  066%=      5-min Rain = 0
KSP2 241323Z 19016KT 19/12 A2985 RMK A01 T01900124  RH  066%=      5-min Rain = 0
KSP2 241324Z 19013KT 19/13 A2985 RMK A01 T01910126  RH  066%=      5-min Rain = 0
KSP2 241325Z 18015G20KT 19/13 A2985 RMK A01 T01920126  RH  065%=      5-min Rain = 0
KSP2 241326Z 19020KT 19/12 A2985 RMK A01 T01930124  RH  064%=      5-min Rain = 0
KSP2 241327Z 19017KT 19/12 A2985 RMK A01 T01930124  RH  064%=      5-min Rain = 0
KSP2 241328Z 18018KT 19/12 A2985 RMK A01 T01930124  RH  064%=      5-min Rain = 0
KSP2 241329Z 19015G20KT 19/12 A2985 RMK A01 T01940124  RH  064%=      5-min Rain = 0
KSP2 241330Z 19016G22KT 19/12 A2985 RMK A01 T01940124  RH  064%=      5-min Rain = 0
KSP2 241331Z 19018KT 20/13 A2985 RMK A01 T01950125  RH  064%=      5-min Rain = 0
KSP2 241332Z 19017G22KT 20/12 A2985 RMK A01 T01960124  RH  063%=      5-min Rain = 0
KSP2 241333Z 19015KT 20/13 A2985 RMK A01 T01960126  RH  064%=      5-min Rain = 0
KSP2 241334Z 18018KT 20/13 A2985 RMK A01 T01970125  RH  063%=      5-min Rain = 0
KSP2 241335Z 18017KT 20/13 A2985 RMK A01 T01980125  RH  063%=      5-min Rain = 0
KSP2 241336Z 18014KT 20/13 A2985 RMK A01 T01980126  RH  063%=      5-min Rain = 0
KSP2 241337Z 19019G24KT 20/13 A2985 RMK A01 T02000125  RH  062%=      5-min Rain = 0
KSP2 241338Z 19019KT 20/13 A2985 RMK A01 T02000125  RH  062%=      5-min Rain = 0
KSP2 241339Z 18015KT 20/13 A2985 RMK A01 T02000126  RH  062%=      5-min Rain = 0
KSP2 241340Z 18018G24KT 20/13 A2985 RMK A01 T02010126  RH  062%=      5-min Rain = 0
KSP2 241341Z 18018KT 20/12 A2984 RMK A01 T02010124  RH  061%=      5-min Rain = 0
KSP2 241342Z 19017G22KT 20/13 A2985 RMK A01 T02020125  RH  061%=      5-min Rain = 0
KSP2 241343Z 18018KT 20/13 A2985 RMK A01 T02020125  RH  061%=      5-min Rain = 0
KSP2 241344Z 19016G21KT 20/13 A2985 RMK A01 T02030125  RH  061%=      5-min Rain = 0
KSP2 241345Z 19020KT 20/13 A2985 RMK A01 T02030126  RH  061%=      5-min Rain = 0
KSP2 241346Z 19017KT 20/13 A2985 RMK A01 T02040125  RH  060%=      5-min Rain = 0
KSP2 241347Z 19013G19KT 20/13 A2985 RMK A01 T02040126  RH  061%=      5-min Rain = 0
KSP2 241348Z 19014G19KT 21/13 A2985 RMK A01 T02050128  RH  061%=      5-min Rain = 0
KSP2 241349Z 19017G24KT 21/13 A2985 RMK A01 T02060128  RH  061%=      5-min Rain = 0
KSP2 241350Z 19017KT 21/13 A2985 RMK A01 T02070126  RH  060%=      5-min Rain = 0
KSP2 241351Z 19018G23KT 21/13 A2985 RMK A01 T02070127  RH  060%=      5-min Rain = 0
KSP2 241352Z 19019KT 21/13 A2985 RMK A01 T02070126  RH  060%=      5-min Rain = 0
KSP2 241353Z 19017KT 21/13 A2985 RMK A01 T02070127  RH  060%=      5-min Rain = 0
KSP2 241354Z 19018KT 21/13 A2985 RMK A01 T02070127  RH  060%=      5-min Rain = 0
KSP2 241355Z 19017G22KT 21/13 A2985 RMK A01 T02070127  RH  060%=      5-min Rain = 0
KSP2 241356Z 18019KT 21/13 A2985 RMK A01 T02070127  RH  060%=      5-min Rain = 0
KSP2 241357Z 19015KT 21/13 A2985 RMK A01 T02080128  RH  060%=      5-min Rain = 0
KSP2 241358Z 19014G21KT 21/13 A2985 RMK A01 T02100130  RH  060%=      5-min Rain = 0
KSP2 241359Z 19019KT 21/13 A2985 RMK A01 T02110128  RH  059%=      5-min Rain = 0
KSP2 241400Z 18021KT 21/13 A2985 RMK A01 T02110128  RH  059%=      5-min Rain = 0
KSP2 241401Z 19018KT 21/13 A2985 RMK A01 T02100128  RH  059%=      5-min Rain = 0
KSP2 241402Z 18020KT 21/13 A2985 RMK A01 T02110128  RH  059%=      5-min Rain = 0
KSP2 241403Z 18017G22KT 21/13 A2985 RMK A01 T02110128  RH  059%=      5-min Rain = 0
KSP2 241404Z 19019G24KT 21/13 A2985 RMK A01 T02120129  RH  059%=      5-min Rain = 0
KSP2 241405Z 18021KT 21/13 A2985 RMK A01 T02120128  RH  059%=      5-min Rain = 0
KSP2 241406Z 19018G24KT 21/13 A2985 RMK A01 T02120128  RH  059%=      5-min Rain = 0
KSP2 241407Z 19018KT 21/13 A2985 RMK A01 T02130131  RH  059%=      5-min Rain = 0
KSP2 241408Z 19019KT 22/13 A2985 RMK A01 T02150130  RH  058%=      5-min Rain = 0
KSP2 241409Z 19017KT 22/13 A2985 RMK A01 T02170131  RH  058%=      5-min Rain = 0
KSP2 241410Z 18021KT 22/13 A2985 RMK A01 T02180131  RH  058%=      5-min Rain = 0
KSP2 241411Z 18022G27KT 22/13 A2985 RMK A01 T02180131  RH  057%=      5-min Rain = 0
KSP2 241412Z 18022KT 22/13 A2985 RMK A01 T02180131  RH  058%=      5-min Rain = 0
KSP2 241413Z 19021G29KT 22/13 A2985 RMK A01 T02180131  RH  058%=      5-min Rain = 0
KSP2 241414Z 19024KT 22/13 A2985 RMK A01 T02170131  RH  058%=      5-min Rain = 0
KSP2 241415Z 19022KT 22/13 A2985 RMK A01 T02170131  RH  058%=      5-min Rain = 0
KSP2 241416Z 19021G27KT 22/13 A2985 RMK A01 T02170132  RH  058%=      5-min Rain = 0
KSP2 241417Z 20023KT 22/13 A2985 RMK A01 T02170132  RH  058%=      5-min Rain = 0
KSP2 241418Z 20018G25KT 22/13 A2985 RMK A01 T02180132  RH  058%=      5-min Rain = 0
KSP2 241419Z 20021G26KT 22/13 A2985 RMK A01 T02180134  RH  059%=      5-min Rain = 0
KSP2 241420Z 19020KT 22/13 A2985 RMK A01 T02190134  RH  058%=      5-min Rain = 0
KSP2 241421Z 20020G25KT 22/14 A2985 RMK A01 T02200135  RH  058%=      5-min Rain = 0
KSP2 241422Z 20019KT 22/13 A2985 RMK A01 T02210134  RH  058%=      5-min Rain = 0
KSP2 241423Z 19019KT 22/13 A2985 RMK A01 T02210134  RH  058%=      5-min Rain = 0
KSP2 241424Z 19019G24KT 22/14 A2985 RMK A01 T02220135  RH  058%=      5-min Rain = 0
KSP2 241425Z 19019KT 22/14 A2985 RMK A01 T02230136  RH  058%=      5-min Rain = 0
KSP2 241426Z 19021KT 22/14 A2985 RMK A01 T02230135  RH  057%=      5-min Rain = 0
KSP2 241427Z 20021G27KT 22/14 A2985 RMK A01 T02240136  RH  058%=      5-min Rain = 0
KSP2 241428Z 20020KT 22/14 A2985 RMK A01 T02230136  RH  058%=      5-min Rain = 0
KSP2 241429Z 19022G27KT 22/14 A2985 RMK A01 T02240136  RH  058%=      5-min Rain = 0
KSP2 241430Z 19021KT 22/14 A2985 RMK A01 T02230136  RH  058%=      5-min Rain = 0
KSP2 241431Z 19019KT 22/14 A2985 RMK A01 T02230137  RH  058%=      5-min Rain = 0
KSP2 241432Z 19021KT 22/14 A2985 RMK A01 T02240137  RH  058%=      5-min Rain = 0
KSP2 241433Z 20021KT 22/14 A2985 RMK A01 T02240137  RH  058%=      5-min Rain = 0
KSP2 241434Z 20019G27KT 23/14 A2985 RMK A01 T02250138  RH  058%=      5-min Rain = 0
KSP2 241435Z 20021KT 23/14 A2985 RMK A01 T02260137  RH  057%=      5-min Rain = 0
KSP2 241436Z 20018KT 23/14 A2985 RMK A01 T02260139  RH  058%=      5-min Rain = 0
KSP2 241437Z 19021G27KT 23/14 A2985 RMK A01 T02270139  RH  057%=      5-min Rain = 0
KSP2 241438Z 20020G25KT 23/14 A2985 RMK A01 T02270139  RH  057%=      5-min Rain = 0
KSP2 241439Z 19017G23KT 23/14 A2985 RMK A01 T02280140  RH  058%=      5-min Rain = 0
KSP2 241440Z 19021G27KT 23/14 A2985 RMK A01 T02290140  RH  057%=      5-min Rain = 0
KSP2 241441Z 19022G28KT 23/14 A2985 RMK A01 T02290140  RH  057%=      5-min Rain = 0
KSP2 241442Z 20025KT 23/14 A2985 RMK A01 T02280139  RH  057%=      5-min Rain = 0
KSP2 241443Z 20025KT 23/14 A2985 RMK A01 T02260138  RH  057%=      5-min Rain = 0
KSP2 241444Z 20026KT 23/14 A2985 RMK A01 T02250138  RH  058%=      5-min Rain = 0
KSP2 241445Z 20022G28KT 22/14 A2985 RMK A01 T02230137  RH  058%=      5-min Rain = 0
KSP2 241446Z 19022G28KT 22/14 A2985 RMK A01 T02230138  RH  059%=      5-min Rain = 0
KSP2 241447Z 19024KT 23/14 A2985 RMK A01 T02250138  RH  058%=      5-min Rain = 0
KSP2 241448Z 19018G24KT 23/14 A2985 RMK A01 T02250139  RH  058%=      5-min Rain = 0
KSP2 241449Z 20020G25KT 23/14 A2985 RMK A01 T02260140  RH  058%=      5-min Rain = 0
KSP2 241450Z 19018G23KT 23/14 A2985 RMK A01 T02280141  RH  058%=      5-min Rain = 0
KSP2 241451Z 20022KT 23/14 A2985 RMK A01 T02300140  RH  057%=      5-min Rain = 0
KSP2 241452Z 19023KT 23/14 A2985 RMK A01 T02290140  RH  057%=      5-min Rain = 0
KSP2 241453Z 20021KT 23/14 A2985 RMK A01 T02290140  RH  057%=      5-min Rain = 0
KSP2 241454Z 19018G24KT 23/14 A2985 RMK A01 T02290140  RH  057%=      5-min Rain = 0
KSP2 241455Z 19019G26KT 23/14 A2985 RMK A01 T02310143  RH  058%=      5-min Rain = 0
KSP2 241456Z 20024KT 23/14 A2985 RMK A01 T02320140  RH  056%=      5-min Rain = 0
KSP2 241457Z 20021KT 23/14 A2985 RMK A01 T02300141  RH  057%=      5-min Rain = 0
KSP2 241458Z 19023G28KT 23/14 A2985 RMK A01 T02300141  RH  057%=      5-min Rain = 0
KSP2 241459Z 19024KT 23/14 A2985 RMK A01 T02290140  RH  057%=      5-min Rain = 0
KSP2 241500Z 20023G30KT 23/14 A2985 RMK A01 T02280140  RH  058%=      5-min Rain = 0
KSP2 241501Z 20022G27KT 23/14 A2984 RMK A01 T02280140  RH  057%=      5-min Rain = 0
KSP2 241502Z 20018G24KT 23/14 A2985 RMK A01 T02300142  RH  057%=      5-min Rain = 0
KSP2 241503Z 19019G25KT 23/14 A2984 RMK A01 T02330144  RH  057%=      5-min Rain = 0
KSP2 241504Z 19022KT 24/14 A2984 RMK A01 T02350143  RH  056%=      5-min Rain = 0
KSP2 241505Z 19023KT 23/14 A2984 RMK A01 T02330142  RH  056%=      5-min Rain = 0
KSP2 241506Z 19022KT 23/14 A2984 RMK A01 T02310142  RH  057%=      5-min Rain = 0
KSP2 241507Z 19017G23KT 23/14 A2984 RMK A01 T02310143  RH  058%=      5-min Rain = 0
KSP2 241508Z 20019G26KT 24/15 A2984 RMK A01 T02350146  RH  057%=      5-min Rain = 0
KSP2 241509Z 20022KT 24/14 A2984 RMK A01 T02370143  RH  056%=      5-min Rain = 0
KSP2 241510Z 20020KT 24/14 A2984 RMK A01 T02350143  RH  056%=      5-min Rain = 0
KSP2 241511Z 21021KT 24/14 A2984 RMK A01 T02350144  RH  056%=      5-min Rain = 0
KSP2 241512Z 20020G26KT 24/14 A2984 RMK A01 T02360144  RH  056%=      5-min Rain = 0
KSP2 241513Z 20019KT 24/14 A2985 RMK A01 T02360144  RH  056%=      5-min Rain = 0
KSP2 241514Z 20020KT 24/15 A2985 RMK A01 T02370146  RH  057%=      5-min Rain = 0
KSP2 241515Z 19022KT 24/15 A2985 RMK A01 T02370145  RH  056%=      5-min Rain = 0
KSP2 241516Z 19020KT 24/15 A2985 RMK A01 T02360146  RH  057%=      5-min Rain = 0
KSP2 241517Z 19019G24KT 24/15 A2985 RMK A01 T02370147  RH  057%=      5-min Rain = 0
KSP2 241518Z 20019KT 24/15 A2985 RMK A01 T02390147  RH  056%=      5-min Rain = 0
KSP2 241519Z 21021KT 24/15 A2984 RMK A01 T02390146  RH  056%=      5-min Rain = 0
KSP2 241520Z 20023KT 24/15 A2984 RMK A01 T02390145  RH  056%=      5-min Rain = 0
KSP2 241521Z 20019G25KT 24/15 A2984 RMK A01 T02370146  RH  056%=      5-min Rain = 0
KSP2 241522Z 21020KT 24/15 A2984 RMK A01 T02390147  RH  057%=      5-min Rain = 0
KSP2 241523Z 20022KT 24/15 A2984 RMK A01 T02400147  RH  056%=      5-min Rain = 0
KSP2 241524Z 21022KT 24/15 A2984 RMK A01 T02400146  RH  056%=      5-min Rain = 0
KSP2 241525Z 20019KT 24/15 A2984 RMK A01 T02390147  RH  056%=      5-min Rain = 0
KSP2 241526Z 20020KT 24/15 A2984 RMK A01 T02400147  RH  056%=      5-min Rain = 0
KSP2 241527Z 21023G28KT 24/15 A2984 RMK A01 T02400147  RH  056%=      5-min Rain = 0
KSP2 241528Z 20023KT 24/15 A2984 RMK A01 T02390147  RH  057%=      5-min Rain = 0
KSP2 241529Z 19018G24KT 24/15 A2984 RMK A01 T02380148  RH  057%=      5-min Rain = 0
KSP2 241530Z 19017G23KT 24/15 A2984 RMK A01 T02400152  RH  058%=      5-min Rain = 0
KSP2 241531Z 20022KT 24/15 A2984 RMK A01 T02420150  RH  056%=      5-min Rain = 0
KSP2 241532Z 20018G25KT 24/15 A2984 RMK A01 T02400150  RH  057%=      5-min Rain = 0
KSP2 241533Z 19019G24KT 24/15 A2984 RMK A01 T02430152  RH  057%=      5-min Rain = 0
KSP2 241534Z 20019KT 24/15 A2984 RMK A01 T02430152  RH  056%=      5-min Rain = 0
KSP2 241535Z 20019KT 24/15 A2984 RMK A01 T02440150  RH  055%=      5-min Rain = 0
KSP2 241536Z 20019KT 24/15 A2984 RMK A01 T02430149  RH  056%=      5-min Rain = 0
KSP2 241537Z 21018KT 24/15 A2984 RMK A01 T02430151  RH  056%=      5-min Rain = 0
KSP2 241538Z 20019KT 24/15 A2984 RMK A01 T02440151  RH  056%=      5-min Rain = 0
KSP2 241539Z 19020G27KT 25/15 A2984 RMK A01 T02450152  RH  056%=      5-min Rain = 0
KSP2 241540Z 20020G25KT 25/15 A2984 RMK A01 T02450152  RH  056%=      5-min Rain = 0
KSP2 241541Z 19021KT 24/15 A2984 RMK A01 T02440151  RH  056%=      5-min Rain = 0
KSP2 241542Z 19021KT 24/15 A2984 RMK A01 T02420151  RH  057%=      5-min Rain = 0
KSP2 241543Z 19019G24KT 24/15 A2984 RMK A01 T02420152  RH  057%=      5-min Rain = 0
KSP2 241544Z 20017G25KT 24/15 A2984 RMK A01 T02440153  RH  057%=      5-min Rain = 0
KSP2 241545Z 21020KT 25/15 A2984 RMK A01 T02460152  RH  056%=      5-min Rain = 0
KSP2 241546Z 19016G21KT 24/15 A2984 RMK A01 T02440153  RH  057%=      5-min Rain = 0
KSP2 241547Z 20019KT 25/16 A2984 RMK A01 T02470156  RH  057%=      5-min Rain = 0
KSP2 241548Z 19020G25KT 25/15 A2984 RMK A01 T02490154  RH  056%=      5-min Rain = 0
KSP2 241549Z 19020KT 25/15 A2984 RMK A01 T02490154  RH  055%=      5-min Rain = 0
KSP2 241550Z 20019G24KT 25/15 A2984 RMK A01 T02480154  RH  056%=      5-min Rain = 0
KSP2 241551Z 20022KT 25/15 A2984 RMK A01 T02470153  RH  056%=      5-min Rain = 0
KSP2 241552Z 19022KT 25/15 A2984 RMK A01 T02460152  RH  056%=      5-min Rain = 0
KSP2 241553Z 19020G25KT 24/15 A2984 RMK A01 T02440152  RH  056%=      5-min Rain = 0
KSP2 241554Z 20020G25KT 24/15 A2984 RMK A01 T02420153  RH  057%=      5-min Rain = 0
KSP2 241555Z 21020KT 24/15 A2984 RMK A01 T02440153  RH  057%=      5-min Rain = 0
KSP2 241556Z 21018G25KT 24/15 A2984 RMK A01 T02440153  RH  057%=      5-min Rain = 0
KSP2 241557Z 20020KT 25/15 A2984 RMK A01 T02470154  RH  056%=      5-min Rain = 0
KSP2 241558Z 21018G23KT 25/15 A2984 RMK A01 T02480153  RH  056%=      5-min Rain = 0
KSP2 241559Z 21020KT 25/15 A2984 RMK A01 T02470153  RH  056%=      5-min Rain = 0
KSP2 241600Z 21016KT 25/15 A2984 RMK A01 T02470154  RH  056%=      5-min Rain = 0
KSP2 241601Z 19019KT 25/16 A2984 RMK A01 T02490156  RH  056%=      5-min Rain = 0
KSP2 241602Z 19023KT 25/16 A2984 RMK A01 T02500156  RH  056%=      5-min Rain = 0
KSP2 241603Z 19017G23KT 25/16 A2984 RMK A01 T02480155  RH  056%=      5-min Rain = 0
KSP2 241604Z 20021G26KT 25/16 A2984 RMK A01 T02470156  RH  057%=      5-min Rain = 0
KSP2 241605Z 20017KT 25/16 A2984 RMK A01 T02460155  RH  057%=      5-min Rain = 0
KSP2 241606Z 19020KT 25/16 A2984 RMK A01 T02470157  RH  057%=      5-min Rain = 0
KSP2 241607Z 19023G29KT 25/16 A2984 RMK A01 T02480156  RH  056%=      5-min Rain = 0
KSP2 241608Z 20018G24KT 25/16 A2984 RMK A01 T02480156  RH  057%=      5-min Rain = 0
KSP2 241609Z 20017G23KT 25/16 A2984 RMK A01 T02490156  RH  056%=      5-min Rain = 0
KSP2 241610Z 20019KT 25/16 A2984 RMK A01 T02500155  RH  055%=      5-min Rain = 0
KSP2 241611Z 20018KT 25/16 A2984 RMK A01 T02500157  RH  056%=      5-min Rain = 0
KSP2 241612Z 19019KT 25/16 A2984 RMK A01 T02500157  RH  056%=      5-min Rain = 0
KSP2 241613Z 20016KT 25/16 A2984 RMK A01 T02500158  RH  057%=      5-min Rain = 0
KSP2 241614Z 21019KT 25/16 A2984 RMK A01 T02500157  RH  056%=      5-min Rain = 0
KSP2 241615Z 21020KT 25/16 A2983 RMK A01 T02500157  RH  056%=      5-min Rain = 0
KSP2 241616Z 21020G25KT 25/16 A2984 RMK A01 T02500156  RH  056%=      5-min Rain = 0
KSP2 241617Z 21016G21KT 25/16 A2984 RMK A01 T02500158  RH  057%=      5-min Rain = 0
KSP2 241618Z 22015G23KT 25/16 A2984 RMK A01 T02500159  RH  057%=      5-min Rain = 0
KSP2 241619Z 21021G26KT 25/16 A2984 RMK A01 T02520157  RH  056%=      5-min Rain = 0
KSP2 241620Z 21015G21KT 25/16 A2984 RMK A01 T02500157  RH  056%=      5-min Rain = 0
KSP2 241621Z 20018G23KT 25/16 A2984 RMK A01 T02500160  RH  057%=      5-min Rain = 0
KSP2 241622Z 20018KT 25/16 A2984 RMK A01 T02520159  RH  056%=      5-min Rain = 0
KSP2 241623Z 21017G22KT 25/16 A2984 RMK A01 T02530160  RH  056%=      5-min Rain = 0
KSP2 241624Z 20021G26KT 25/16 A2984 RMK A01 T02530159  RH  056%=      5-min Rain = 0
KSP2 241625Z 21019KT 25/16 A2984 RMK A01 T02510157  RH  056%=      5-min Rain = 0
KSP2 241626Z 20018KT 25/16 A2984 RMK A01 T02510159  RH  057%=      5-min Rain = 0
KSP2 241627Z 19017KT 25/16 A2984 RMK A01 T02510158  RH  056%=      5-min Rain = 0
KSP2 241628Z 21015G20KT 25/16 A2984 RMK A01 T02520159  RH  056%=      5-min Rain = 0
KSP2 241629Z 21020KT 26/16 A2984 RMK A01 T02550159  RH  055%=      5-min Rain = 0
KSP2 241630Z 22017G23KT 25/16 A2984 RMK A01 T02540159  RH  056%=      5-min Rain = 0
KSP2 241631Z 21017G22KT 25/16 A2984 RMK A01 T02540160  RH  056%=      5-min Rain = 0
KSP2 241632Z 21018KT 25/16 A2984 RMK A01 T02540159  RH  056%=      5-min Rain = 0
KSP2 241633Z 21015G22KT 26/16 A2984 RMK A01 T02560160  RH  055%=      5-min Rain = 0
KSP2 241634Z 21014G22KT 26/16 A2984 RMK A01 T02570159  RH  055%=      5-min Rain = 0
KSP2 241635Z 21017KT 26/16 A2984 RMK A01 T02550160  RH  055%=      5-min Rain = 0
KSP2 241636Z 20017KT 26/16 A2984 RMK A01 T02560160  RH  055%=      5-min Rain = 0
KSP2 241637Z 21019KT 26/16 A2984 RMK A01 T02570159  RH  055%=      5-min Rain = 0
KSP2 241638Z 21015KT 25/16 A2984 RMK A01 T02540160  RH  056%=      5-min Rain = 0
KSP2 241639Z 20015KT 26/16 A2984 RMK A01 T02560161  RH  056%=      5-min Rain = 0
KSP2 241640Z 21017KT 26/16 A2984 RMK A01 T02590162  RH  055%=      5-min Rain = 0
KSP2 241641Z 20018KT 26/16 A2984 RMK A01 T02600161  RH  054%=      5-min Rain = 0
KSP2 241642Z 21017KT 26/16 A2984 RMK A01 T02600160  RH  054%=      5-min Rain = 0
KSP2 241643Z 22012G17KT 26/16 A2984 RMK A01 T02580160  RH  055%=      5-min Rain = 0
KSP2 241644Z 21017KT 26/16 A2984 RMK A01 T02590162  RH  055%=      5-min Rain = 0
KSP2 241645Z 21014KT 26/16 A2984 RMK A01 T02590164  RH  056%=      5-min Rain = 0
KSP2 241646Z 20013G21KT 26/16 A2984 RMK A01 T02590164  RH  056%=      5-min Rain = 0
KSP2 241647Z 18021G27KT 26/16 A2984 RMK A01 T02600163  RH  055%=      5-min Rain = 0
KSP2 241648Z 19017G23KT 26/16 A2984 RMK A01 T02580163  RH  056%=      5-min Rain = 0
KSP2 241649Z 20019KT 26/17 A2984 RMK A01 T02610166  RH  056%=      5-min Rain = 0
KSP2 241650Z 21015G21KT 26/16 A2984 RMK A01 T02630162  RH  054%=      5-min Rain = 0
KSP2 241651Z 20015KT 26/16 A2984 RMK A01 T02630163  RH  054%=      5-min Rain = 0
KSP2 241652Z 19015G21KT 26/16 A2984 RMK A01 T02640161  RH  053%=      5-min Rain = 0
KSP2 241653Z 19020KT 26/16 A2984 RMK A01 T02630159  RH  053%=      5-min Rain = 0
KSP2 241654Z 19015KT 26/16 A2984 RMK A01 T02600162  RH  055%=      5-min Rain = 0
KSP2 241655Z 20014G21KT 26/17 A2985 RMK A01 T02630165  RH  055%=      5-min Rain = 0
KSP2 241656Z 21017KT 27/16 A2985 RMK A01 T02650164  RH  054%=      5-min Rain = 0
KSP2 241657Z 19018KT 26/16 A2985 RMK A01 T02630164  RH  054%=      5-min Rain = 0
KSP2 241658Z 19016G21KT 26/16 A2984 RMK A01 T02620164  RH  055%=      5-min Rain = 0
KSP2 241659Z 20017KT 26/16 A2984 RMK A01 T02640164  RH  054%=      5-min Rain = 0
KSP2 241700Z 21018KT 26/16 A2985 RMK A01 T02630162  RH  054%=      5-min Rain = 0
KSP2 241701Z 20017G22KT 26/16 A2984 RMK A01 T02620161  RH  054%=      5-min Rain = 0
KSP2 241702Z 20016KT 26/16 A2985 RMK A01 T02600161  RH  054%=      5-min Rain = 0
KSP2 241703Z 20017KT 26/16 A2985 RMK A01 T02580162  RH  055%=      5-min Rain = 0
KSP2 241704Z 20018KT 26/16 A2985 RMK A01 T02590161  RH  055%=      5-min Rain = 0
KSP2 241705Z 19018KT 26/16 A2984 RMK A01 T02590162  RH  055%=      5-min Rain = 0
KSP2 241706Z 18017KT 26/16 A2984 RMK A01 T02590161  RH  055%=      5-min Rain = 0
KSP2 241707Z 18016KT 26/16 A2984 RMK A01 T02570161  RH  056%=      5-min Rain = 0
KSP2 241708Z 20016KT 26/16 A2985 RMK A01 T02570162  RH  056%=      5-min Rain = 0
KSP2 241709Z 21017KT 26/16 A2985 RMK A01 T02610161  RH  054%=      5-min Rain = 0
KSP2 241710Z 20015G21KT 26/16 A2985 RMK A01 T02630159  RH  053%=      5-min Rain = 0
KSP2 241711Z 19016KT 26/16 A2985 RMK A01 T02630159  RH  053%=      5-min Rain = 0
KSP2 241712Z 19016G24KT 26/16 A2985 RMK A01 T02640162  RH  053%=      5-min Rain = 0
KSP2 241713Z 20019G25KT 27/16 A2984 RMK A01 T02650162  RH  053%=      5-min Rain = 0
KSP2 241714Z 21014KT 26/16 A2985 RMK A01 T02640163  RH  054%=      5-min Rain = 0
KSP2 241715Z 20013G18KT 26/16 A2985 RMK A01 T02640164  RH  054%=      5-min Rain = 0
KSP2 241716Z 21018KT 27/16 A2985 RMK A01 T02670163  RH  053%=      5-min Rain = 0
KSP2 241717Z 21018KT 27/16 A2985 RMK A01 T02650157  RH  051%=      5-min Rain = 0
KSP2 241718Z 21012G18KT 26/16 A2985 RMK A01 T02640158  RH  052%=      5-min Rain = 0
KSP2 241719Z 21011KT 27/16 A2985 RMK A01 T02650160  RH  053%=      5-min Rain = 0
KSP2 241720Z 22014G19KT 27/16 A2985 RMK A01 T02650162  RH  053%=      5-min Rain = 0
KSP2 241721Z 22013G18KT 27/16 A2985 RMK A01 T02660163  RH  053%=      5-min Rain = 0
KSP2 241722Z 21013KT 27/16 A2985 RMK A01 T02680163  RH  053%=      5-min Rain = 0
KSP2 241723Z 20013KT 27/16 A2985 RMK A01 T02680164  RH  053%=      5-min Rain = 0
KSP2 241724Z 19017KT 27/16 A2985 RMK A01 T02670164  RH  053%=      5-min Rain = 0
KSP2 241725Z 19016KT 27/16 A2985 RMK A01 T02650164  RH  054%=      5-min Rain = 0
KSP2 241726Z 19017KT 26/16 A2985 RMK A01 T02630164  RH  054%=      5-min Rain = 0
KSP2 241727Z 21014KT 26/17 A2985 RMK A01 T02630165  RH  055%=      5-min Rain = 0
KSP2 241728Z 20016KT 27/17 A2985 RMK A01 T02680165  RH  053%=      5-min Rain = 0
KSP2 241729Z 20014KT 27/16 A2985 RMK A01 T02660164  RH  053%=      5-min Rain = 0
KSP2 241730Z 19012KT 26/17 A2985 RMK A01 T02640166  RH  055%=      5-min Rain = 0
KSP2 241731Z 19012KT 26/17 A2985 RMK A01 T02630167  RH  055%=      5-min Rain = 0
KSP2 241732Z 19014KT 27/17 A2985 RMK A01 T02650167  RH  055%=      5-min Rain = 0
KSP2 241733Z 20016KT 27/17 A2985 RMK A01 T02670165  RH  053%=      5-min Rain = 0
KSP2 241734Z 19015KT 27/17 A2985 RMK A01 T02680165  RH  053%=      5-min Rain = 0
KSP2 241735Z 18013KT 27/17 A2985 RMK A01 T02680166  RH  053%=      5-min Rain = 0
KSP2 241736Z 20013G19KT 27/17 A2985 RMK A01 T02720165  RH  052%=      5-min Rain = 0
KSP2 241737Z 21016KT 27/16 A2985 RMK A01 T02720164  RH  052%=      5-min Rain = 0
KSP2 241738Z 21012KT 27/16 A2985 RMK A01 T02710160  RH  051%=      5-min Rain = 0
KSP2 241739Z 21011KT 27/16 A2985 RMK A01 T02690162  RH  052%=      5-min Rain = 0
KSP2 241740Z 22012KT 27/16 A2985 RMK A01 T02710162  RH  051%=      5-min Rain = 0
KSP2 241741Z 21010KT 27/16 A2985 RMK A01 T02710163  RH  051%=      5-min Rain = 0
KSP2 241742Z 21011KT 27/17 A2985 RMK A01 T02730166  RH  052%=      5-min Rain = 0
KSP2 241743Z 23013KT 27/16 A2984 RMK A01 T02730162  RH  051%=      5-min Rain = 0
KSP2 241744Z 22010KT 27/16 A2984 RMK A01 T02710161  RH  051%=      5-min Rain = 0
KSP2 241745Z 22011G18KT 27/16 A2984 RMK A01 T02690163  RH  052%=      5-min Rain = 0
KSP2 241746Z 22015KT 27/16 A2984 RMK A01 T02700164  RH  052%=      5-min Rain = 0
KSP2 241747Z 22013KT 27/16 A2984 RMK A01 T02740164  RH  051%=      5-min Rain = 0
KSP2 241748Z 22012KT 27/16 A2984 RMK A01 T02740162  RH  050%=      5-min Rain = 0
KSP2 241749Z 21012KT 27/16 A2984 RMK A01 T02720164  RH  052%=      5-min Rain = 0
KSP2 241750Z 19013KT 27/16 A2984 RMK A01 T02740164  RH  051%=      5-min Rain = 0
KSP2 241751Z 21011KT 27/16 A2984 RMK A01 T02720163  RH  052%=      5-min Rain = 0
KSP2 241752Z 22012KT 27/16 A2984 RMK A01 T02710163  RH  052%=      5-min Rain = 0
KSP2 241753Z 21011KT 27/16 A2984 RMK A01 T02740164  RH  051%=      5-min Rain = 0
KSP2 241754Z 22012KT 27/16 A2984 RMK A01 T02740162  RH  051%=      5-min Rain = 0
KSP2 241755Z 21011G17KT 27/16 A2984 RMK A01 T02730162  RH  051%=      5-min Rain = 0
KSP2 241756Z 19014KT 27/16 A2984 RMK A01 T02740163  RH  051%=      5-min Rain = 0
KSP2 241757Z 20011KT 28/16 A2984 RMK A01 T02750163  RH  050%=      5-min Rain = 0
KSP2 241758Z 22013KT 28/16 A2984 RMK A01 T02750162  RH  050%=      5-min Rain = 0
KSP2 241759Z 22014G19KT 27/16 A2984 RMK A01 T02740159  RH  049%=      5-min Rain = 0
KSP2 241800Z 21014KT 27/16 A2984 RMK A01 T02720157  RH  049%=      5-min Rain = 0
KSP2 241801Z 21011KT 27/16 A2984 RMK A01 T02710156  RH  049%=      5-min Rain = 0
KSP2 241802Z 21010KT 27/16 A2984 RMK A01 T02730157  RH  049%=      5-min Rain = 0
KSP2 241803Z 21011KT 27/16 A2984 RMK A01 T02740157  RH  049%=      5-min Rain = 0
KSP2 241804Z 21013KT 28/16 A2984 RMK A01 T02750158  RH  049%=      5-min Rain = 0
KSP2 241805Z 22012KT 28/16 A2984 RMK A01 T02760161  RH  050%=      5-min Rain = 0
KSP2 241806Z 20010KT 28/16 A2984 RMK A01 T02790164  RH  050%=      5-min Rain = 0
KSP2 241807Z 20008KT 28/16 A2984 RMK A01 T02810158  RH  047%=      5-min Rain = 0
KSP2 241808Z 21008G16KT 28/16 A2984 RMK A01 T02770161  RH  049%=      5-min Rain = 0
KSP2 241809Z 20012KT 28/16 A2984 RMK A01 T02770163  RH  050%=      5-min Rain = 0
KSP2 241810Z 22011G16KT 28/16 A2984 RMK A01 T02790161  RH  049%=      5-min Rain = 0
KSP2 241811Z 22012KT 28/16 A2984 RMK A01 T02790159  RH  048%=      5-min Rain = 0
KSP2 241812Z 20009KT 28/16 A2984 RMK A01 T02780156  RH  047%=      5-min Rain = 0
KSP2 241813Z 22007KT 28/16 A2984 RMK A01 T02760162  RH  050%=      5-min Rain = 0
KSP2 241814Z 20013KT 28/17 A2984 RMK A01 T02810166  RH  050%=      5-min Rain = 0
KSP2 241815Z 20012KT 28/16 A2984 RMK A01 T02820162  RH  048%=      5-min Rain = 0
KSP2 241816Z 18010G15KT 28/16 A2984 RMK A01 T02800160  RH  048%=      5-min Rain = 0
KSP2 241817Z 20009KT 28/16 A2984 RMK A01 T02790162  RH  049%=      5-min Rain = 0
KSP2 241818Z 21010KT 28/16 A2984 RMK A01 T02790161  RH  048%=      5-min Rain = 0
KSP2 241819Z 20010KT 28/16 A2984 RMK A01 T02790159  RH  048%=      5-min Rain = 0
KSP2 241820Z 19012KT 28/16 A2984 RMK A01 T02790158  RH  048%=      5-min Rain = 0
KSP2 241821Z 20008KT 28/16 A2984 RMK A01 T02770162  RH  050%=      5-min Rain = 0
KSP2 241822Z 18008KT 28/17 A2984 RMK A01 T02790167  RH  050%=      5-min Rain = 0
KSP2 241823Z 20008G16KT 28/17 A2984 RMK A01 T02810165  RH  049%=      5-min Rain = 0
KSP2 241824Z 23012KT 28/16 A2984 RMK A01 T02790163  RH  049%=      5-min Rain = 0
KSP2 241825Z 23011KT 28/16 A2984 RMK A01 T02780160  RH  049%=      5-min Rain = 0
KSP2 241826Z 22011KT 28/16 A2984 RMK A01 T02750161  RH  050%=      5-min Rain = 0
KSP2 241827Z 21010KT 28/16 A2984 RMK A01 T02780162  RH  049%=      5-min Rain = 0
KSP2 241828Z 23007KT 28/16 A2984 RMK A01 T02800163  RH  049%=      5-min Rain = 0
KSP2 241829Z 22008KT 28/16 A2984 RMK A01 T02820163  RH  048%=      5-min Rain = 0
KSP2 241830Z 21005KT 28/16 A2984 RMK A01 T02840160  RH  047%=      5-min Rain = 0
KSP2 241831Z 19005KT 28/16 A2984 RMK A01 T02830156  RH  046%=      5-min Rain = 0
KSP2 241832Z 21006KT 28/16 A2984 RMK A01 T02790159  RH  048%=      5-min Rain = 0
KSP2 241833Z 19008KT 28/17 A2984 RMK A01 T02810165  RH  049%=      5-min Rain = 0
KSP2 241834Z 17011KT 29/16 A2984 RMK A01 T02850164  RH  048%=      5-min Rain = 0
KSP2 241835Z 18011KT 28/16 A2984 RMK A01 T02840159  RH  046%=      5-min Rain = 0
KSP2 241836Z 18011KT 28/16 A2984 RMK A01 T02800158  RH  048%=      5-min Rain = 0
KSP2 241837Z 19012KT 28/16 A2984 RMK A01 T02800161  RH  048%=      5-min Rain = 0
KSP2 241838Z 18011KT 28/16 A2984 RMK A01 T02810160  RH  048%=      5-min Rain = 0
KSP2 241839Z 20009KT 28/17 A2984 RMK A01 T02840166  RH  049%=      5-min Rain = 0
KSP2 241840Z 21011KT 29/16 A2984 RMK A01 T02890162  RH  046%=      5-min Rain = 0
KSP2 241841Z 20009KT 29/16 A2984 RMK A01 T02860157  RH  046%=      5-min Rain = 0
KSP2 241842Z 20006KT 28/15 A2983 RMK A01 T02800153  RH  046%=      5-min Rain = 0
KSP2 241843Z 19008KT 28/16 A2983 RMK A01 T02760158  RH  048%=      5-min Rain = 0
KSP2 241844Z 21011KT 28/16 A2983 RMK A01 T02800159  RH  048%=      5-min Rain = 0
KSP2 241845Z 20009G14KT 28/16 A2983 RMK A01 T02810157  RH  047%=      5-min Rain = 0
KSP2 241846Z 19009KT 28/16 A2983 RMK A01 T02820156  RH  046%=      5-min Rain = 0
KSP2 241847Z 21011G17KT 29/16 A2983 RMK A01 T02850157  RH  046%=      5-min Rain = 0
KSP2 241848Z 21012KT 29/16 A2983 RMK A01 T02860161  RH  047%=      5-min Rain = 0
KSP2 241849Z 21008KT 28/16 A2983 RMK A01 T02830160  RH  047%=      5-min Rain = 0
KSP2 241850Z 21010KT 28/16 A2983 RMK A01 T02810157  RH  047%=      5-min Rain = 0
KSP2 241851Z 20011KT 28/16 A2983 RMK A01 T02810156  RH  047%=      5-min Rain = 0
KSP2 241852Z 20009KT 28/16 A2983 RMK A01 T02800155  RH  046%=      5-min Rain = 0
KSP2 241853Z 22006KT 28/16 A2983 RMK A01 T02810163  RH  049%=      5-min Rain = 0
KSP2 241854Z 20009KT 29/17 A2983 RMK A01 T02880166  RH  048%=      5-min Rain = 0
KSP2 241855Z 20013KT 29/16 A2983 RMK A01 T02940160  RH  044%=      5-min Rain = 0
KSP2 241856Z 20010KT 29/16 A2983 RMK A01 T02910155  RH  043%=      5-min Rain = 0
KSP2 241857Z 20013KT 29/16 A2983 RMK A01 T02900156  RH  044%=      5-min Rain = 0
KSP2 241858Z 21011KT 29/15 A2983 RMK A01 T02870154  RH  044%=      5-min Rain = 0
KSP2 241859Z 22010KT 29/15 A2983 RMK A01 T02860152  RH  044%=      5-min Rain = 0
KSP2 241900Z 20008KT 29/15 A2983 RMK A01 T02860153  RH  044%=      5-min Rain = 0
KSP2 241901Z 20009KT 29/15 A2983 RMK A01 T02860152  RH  044%=      5-min Rain = 0
KSP2 241902Z 19009KT 28/16 A2982 RMK A01 T02840155  RH  045%=      5-min Rain = 0
KSP2 241903Z 19012KT 29/16 A2982 RMK A01 T02860155  RH  045%=      5-min Rain = 0
KSP2 241904Z 21012KT 29/15 A2982 RMK A01 T02880154  RH  044%=      5-min Rain = 0
KSP2 241905Z 21015KT 29/15 A2982 RMK A01 T02900153  RH  043%=      5-min Rain = 0
KSP2 241906Z 20013KT 29/15 A2982 RMK A01 T02900150  RH  043%=      5-min Rain = 0
KSP2 241907Z 20010KT 29/15 A2982 RMK A01 T02870152  RH  044%=      5-min Rain = 0
KSP2 241908Z 21010KT 29/15 A2982 RMK A01 T02870149  RH  043%=      5-min Rain = 0
KSP2 241909Z 19007KT 29/15 A2982 RMK A01 T02880148  RH  042%=      5-min Rain = 0
KSP2 241910Z 17005KT 29/15 A2982 RMK A01 T02880149  RH  043%=      5-min Rain = 0
KSP2 241911Z 17005KT 29/15 A2982 RMK A01 T02860150  RH  043%=      5-min Rain = 0
KSP2 241912Z 18011KT 29/16 A2982 RMK A01 T02870155  RH  045%=      5-min Rain = 0
KSP2 241913Z 18012KT 29/16 A2982 RMK A01 T02900157  RH  045%=      5-min Rain = 0
KSP2 241914Z 20012KT 29/16 A2982 RMK A01 T02910157  RH  044%=      5-min Rain = 0
KSP2 241915Z 18011KT 29/16 A2982 RMK A01 T02910159  RH  045%=      5-min Rain = 0
KSP2 241916Z 19010KT 29/16 A2982 RMK A01 T02900157  RH  044%=      5-min Rain = 0
KSP2 241917Z 19006KT 29/16 A2982 RMK A01 T02870157  RH  045%=      5-min Rain = 0
KSP2 241918Z 18007KT 29/16 A2982 RMK A01 T02880155  RH  044%=      5-min Rain = 0
KSP2 241919Z 19010KT 29/16 A2982 RMK A01 T02890156  RH  044%=      5-min Rain = 0
KSP2 241920Z 20009KT 29/16 A2982 RMK A01 T02920158  RH  044%=      5-min Rain = 0
KSP2 241921Z 20011KT 29/16 A2982 RMK A01 T02940159  RH  044%=      5-min Rain = 0
KSP2 241922Z 21007KT 29/16 A2982 RMK A01 T02930156  RH  043%=      5-min Rain = 0
KSP2 241923Z 21009G14KT 29/16 A2982 RMK A01 T02910158  RH  045%=      5-min Rain = 0
KSP2 241924Z 21010KT 29/16 A2982 RMK A01 T02900162  RH  046%=      5-min Rain = 0
KSP2 241925Z 18013KT 29/16 A2981 RMK A01 T02930162  RH  045%=      5-min Rain = 0
KSP2 241926Z 17013KT 29/16 A2981 RMK A01 T02940160  RH  044%=      5-min Rain = 0
KSP2 241927Z 17009KT 29/16 A2981 RMK A01 T02900157  RH  044%=      5-min Rain = 0
KSP2 241928Z 21011KT 29/16 A2981 RMK A01 T02890159  RH  045%=      5-min Rain = 0
KSP2 241929Z 20008KT 29/16 A2981 RMK A01 T02920160  RH  045%=      5-min Rain = 0
KSP2 241930Z 17008KT 30/16 A2981 RMK A01 T02970160  RH  043%=      5-min Rain = 0
KSP2 241931Z 17005KT 30/16 A2981 RMK A01 T02990156  RH  042%=      5-min Rain = 0
KSP2 241932Z 21006KT 30/16 A2981 RMK A01 T02980156  RH  042%=      5-min Rain = 0
KSP2 241933Z 18005KT 30/16 A2981 RMK A01 T02990156  RH  042%=      5-min Rain = 0
KSP2 241934Z 16006KT 30/16 A2981 RMK A01 T03010155  RH  041%=      5-min Rain = 0
KSP2 241935Z 15006KT 30/15 A2981 RMK A01 T03000153  RH  041%=      5-min Rain = 0
KSP2 241936Z 18006KT 30/15 A2981 RMK A01 T03000152  RH  041%=      5-min Rain = 0
KSP2 241937Z 15008KT 30/15 A2981 RMK A01 T02990150  RH  040%=      5-min Rain = 0
KSP2 241938Z 16007KT 30/15 A2981 RMK A01 T02980153  RH  041%=      5-min Rain = 0
KSP2 241939Z 20012KT 30/16 A2981 RMK A01 T02990157  RH  042%=      5-min Rain = 0
KSP2 241940Z 20009KT 30/16 A2981 RMK A01 T03000158  RH  042%=      5-min Rain = 0
KSP2 241941Z 20008KT 30/16 A2981 RMK A01 T03000156  RH  042%=      5-min Rain = 0
KSP2 241942Z 23005KT 30/15 A298 RMK A01 T02990151  RH  041%=      5-min Rain = 0
KSP2 241943Z 20008KT 30/15 A298 RMK A01 T02970154  RH  042%=      5-min Rain = 0
KSP2 241944Z 20011KT 30/16 A298 RMK A01 T03000156  RH  042%=      5-min Rain = 0
KSP2 241945Z 23012KT 30/15 A298 RMK A01 T03030153  RH  040%=      5-min Rain = 0
KSP2 241946Z 22009KT 30/15 A298 RMK A01 T03020150  RH  040%=      5-min Rain = 0
KSP2 241947Z 23010KT 30/15 A298 RMK A01 T03000150  RH  040%=      5-min Rain = 0
KSP2 241948Z 23009KT 30/15 A298 RMK A01 T02990150  RH  040%=      5-min Rain = 0
KSP2 241949Z 25010KT 30/15 A298 RMK A01 T02980147  RH  040%=      5-min Rain = 0
KSP2 241950Z 21008KT 30/15 A298 RMK A01 T02980149  RH  040%=      5-min Rain = 0
KSP2 241951Z 22008KT 30/15 A298 RMK A01 T02980151  RH  041%=      5-min Rain = 0
KSP2 241952Z 22007KT 30/15 A298 RMK A01 T02980152  RH  041%=      5-min Rain = 0
KSP2 241953Z 23006KT 30/16 A298 RMK A01 T02970155  RH  042%=      5-min Rain = 0
KSP2 241954Z 19005KT 30/15 A298 RMK A01 T02980153  RH  042%=      5-min Rain = 0
KSP2 241955Z 17011KT 30/16 A298 RMK A01 T02970160  RH  043%=      5-min Rain = 0
KSP2 241956Z 17010KT 30/16 A298 RMK A01 T02980160  RH  043%=      5-min Rain = 0
KSP2 241957Z 17010KT 30/16 A298 RMK A01 T02970161  RH  044%=      5-min Rain = 0
KSP2 241958Z 16013KT 30/16 A298 RMK A01 T02980164  RH  044%=      5-min Rain = 0
KSP2 241959Z 16011KT 30/16 A298 RMK A01 T03000160  RH  043%=      5-min Rain = 0
KSP2 242000Z 17007KT 30/16 A298 RMK A01 T02980158  RH  043%=      5-min Rain = 0
KSP2 242001Z 15008KT 30/16 A298 RMK A01 T02950159  RH  044%=      5-min Rain = 0
KSP2 242002Z 17011G16KT 30/16 A298 RMK A01 T02960160  RH  044%=      5-min Rain = 0
KSP2 242003Z 16011G16KT 30/16 A2979 RMK A01 T02990159  RH  043%=      5-min Rain = 0
KSP2 242004Z 16012KT 30/16 A298 RMK A01 T03030159  RH  042%=      5-min Rain = 0
KSP2 242005Z 17012KT 30/16 A298 RMK A01 T03040157  RH  041%=      5-min Rain = 0
KSP2 242006Z 17010KT 30/16 A2979 RMK A01 T03020155  RH  041%=      5-min Rain = 0
KSP2 242007Z 18010KT 30/16 A2979 RMK A01 T03000156  RH  042%=      5-min Rain = 0
KSP2 242008Z 17011KT 30/15 A2979 RMK A01 T03000153  RH  041%=      5-min Rain = 0
KSP2 242009Z 15011KT 30/16 A2979 RMK A01 T03010155  RH  041%=      5-min Rain = 0
KSP2 242010Z 14010KT 30/15 A2979 RMK A01 T03020152  RH  040%=      5-min Rain = 0
KSP2 242011Z 14010KT 30/15 A2979 RMK A01 T03000150  RH  040%=      5-min Rain = 0
KSP2 242012Z 15005KT 30/15 A2979 RMK A01 T02970150  RH  041%=      5-min Rain = 0
KSP2 242013Z 15006KT 30/15 A2979 RMK A01 T02970154  RH  042%=      5-min Rain = 0
KSP2 242014Z 17008KT 30/15 A2979 RMK A01 T03010149  RH  040%=      5-min Rain = 0
KSP2 242015Z 17010KT 30/15 A2979 RMK A01 T03010150  RH  040%=      5-min Rain = 0
KSP2 242016Z 16012KT 30/16 A2979 RMK A01 T03020158  RH  042%=      5-min Rain = 0
KSP2 242017Z 17010KT 30/16 A2979 RMK A01 T03040158  RH  041%=      5-min Rain = 0
KSP2 242018Z 19009KT 30/16 A2979 RMK A01 T03040157  RH  041%=      5-min Rain = 0
KSP2 242019Z 18011KT 30/15 A2979 RMK A01 T03040154  RH  040%=      5-min Rain = 0
KSP2 242020Z 18013KT 31/15 A2979 RMK A01 T03050154  RH  040%=      5-min Rain = 0
KSP2 242021Z 18010KT 31/15 A2979 RMK A01 T03070154  RH  040%=      5-min Rain = 0
KSP2 242022Z 17009KT 31/15 A2979 RMK A01 T03060150  RH  039%=      5-min Rain = 0
KSP2 242023Z 18009KT 31/15 A2979 RMK A01 T03050152  RH  039%=      5-min Rain = 0
KSP2 242024Z 20010KT 31/15 A2979 RMK A01 T03070150  RH  039%=      5-min Rain = 0
KSP2 242025Z 20007KT 31/15 A2979 RMK A01 T03050146  RH  038%=      5-min Rain = 0
KSP2 242026Z 22012KT 30/15 A2979 RMK A01 T03030147  RH  039%=      5-min Rain = 0
KSP2 242027Z 21010KT 30/15 A2979 RMK A01 T03040148  RH  039%=      5-min Rain = 0
KSP2 242028Z 22009KT 31/15 A2979 RMK A01 T03050146  RH  038%=      5-min Rain = 0
KSP2 242029Z 20005KT 30/14 A2979 RMK A01 T03020141  RH  038%=      5-min Rain = 0
KSP2 242030Z 22005KT 30/15 A2978 RMK A01 T03010145  RH  039%=      5-min Rain = 0
KSP2 242031Z 20008G13KT 30/15 A2978 RMK A01 T03040148  RH  039%=      5-min Rain = 0
KSP2 242032Z 16009KT 31/14 A2978 RMK A01 T03080141  RH  036%=      5-min Rain = 0
KSP2 242033Z 19009KT 31/14 A2978 RMK A01 T03070142  RH  037%=      5-min Rain = 0
KSP2 242034Z 18011KT 31/15 A2978 RMK A01 T03070147  RH  038%=      5-min Rain = 0
KSP2 242035Z 18007KT 31/14 A2978 RMK A01 T03070143  RH  037%=      5-min Rain = 0
KSP2 242036Z 14006KT 31/14 A2978 RMK A01 T03050144  RH  038%=      5-min Rain = 0
KSP2 242037Z 12003KT 31/15 A2978 RMK A01 T03050145  RH  038%=      5-min Rain = 0
KSP2 242038Z 14006KT 30/15 A2978 RMK A01 T03040149  RH  039%=      5-min Rain = 0
KSP2 242039Z 18012KT 31/16 A2978 RMK A01 T03050156  RH  041%=      5-min Rain = 0
KSP2 242040Z 19010KT 31/16 A2978 RMK A01 T03070157  RH  040%=      5-min Rain = 0
KSP2 242041Z 19008KT 31/16 A2978 RMK A01 T03070157  RH  040%=      5-min Rain = 0
KSP2 242042Z 17009G16KT 31/16 A2978 RMK A01 T03080159  RH  041%=      5-min Rain = 0
KSP2 242043Z 16013KT 31/16 A2978 RMK A01 T03090155  RH  039%=      5-min Rain = 0
KSP2 242044Z 16011KT 31/15 A2978 RMK A01 T03100149  RH  038%=      5-min Rain = 0
KSP2 242045Z 17012KT 31/15 A2977 RMK A01 T03090149  RH  038%=      5-min Rain = 0
KSP2 242046Z 16014KT 31/16 A2977 RMK A01 T03090157  RH  040%=      5-min Rain = 0
KSP2 242047Z 16011KT 31/15 A2977 RMK A01 T03080154  RH  039%=      5-min Rain = 0
KSP2 242048Z 15009KT 31/15 A2977 RMK A01 T03070154  RH  040%=      5-min Rain = 0
KSP2 242049Z 14006KT 31/16 A2977 RMK A01 T03070156  RH  040%=      5-min Rain = 0
KSP2 242050Z 17007KT 31/16 A2977 RMK A01 T03050157  RH  041%=      5-min Rain = 0
KSP2 242051Z 17011KT 31/16 A2977 RMK A01 T03050158  RH  041%=      5-min Rain = 0
KSP2 242052Z 16009KT 30/16 A2977 RMK A01 T03040157  RH  041%=      5-min Rain = 0
KSP2 242053Z 17011G17KT 30/16 A2977 RMK A01 T03040160  RH  042%=      5-min Rain = 0
KSP2 242054Z 17016KT 31/16 A2977 RMK A01 T03090161  RH  041%=      5-min Rain = 0
KSP2 242055Z 17014KT 31/16 A2977 RMK A01 T03090158  RH  040%=      5-min Rain = 0
KSP2 242056Z 17013KT 31/16 A2977 RMK A01 T03080159  RH  041%=      5-min Rain = 0
KSP2 242057Z 19008G13KT 31/16 A2977 RMK A01 T03090157  RH  040%=      5-min Rain = 0
KSP2 242058Z 18005KT 31/15 A2977 RMK A01 T03050153  RH  040%=      5-min Rain = 0
KSP2 242059Z 18013G19KT 30/16 A2977 RMK A01 T03020156  RH  041%=      5-min Rain = 0
KSP2 242100Z 18016KT 30/16 A2977 RMK A01 T03020161  RH  043%=      5-min Rain = 0
KSP2 242101Z 19009KT 31/16 A2977 RMK A01 T03050160  RH  042%=      5-min Rain = 0
KSP2 242102Z 19006KT 30/16 A2976 RMK A01 T03030161  RH  042%=      5-min Rain = 0
KSP2 242103Z 20011KT 30/16 A2976 RMK A01 T03030164  RH  043%=      5-min Rain = 0
KSP2 242104Z 19010KT 30/16 A2976 RMK A01 T03030161  RH  042%=      5-min Rain = 0
KSP2 242105Z 15007KT 30/16 A2976 RMK A01 T02990162  RH  043%=      5-min Rain = 0
KSP2 242106Z 16010KT 30/16 A2976 RMK A01 T02980157  RH  043%=      5-min Rain = 0
KSP2 242107Z 16011KT 30/16 A2976 RMK A01 T02980161  RH  043%=      5-min Rain = 0
KSP2 242108Z 15013G18KT 30/17 A2976 RMK A01 T03020165  RH  044%=      5-min Rain = 0
KSP2 242109Z 14013KT 31/16 A2976 RMK A01 T03060162  RH  042%=      5-min Rain = 0
KSP2 242110Z 16013KT 31/16 A2976 RMK A01 T03060162  RH  042%=      5-min Rain = 0
KSP2 242111Z 18015KT 31/16 A2976 RMK A01 T03080157  RH  040%=      5-min Rain = 0
KSP2 242112Z 17012KT 31/16 A2976 RMK A01 T03080157  RH  040%=      5-min Rain = 0
KSP2 242113Z 17014KT 31/16 A2976 RMK A01 T03070160  RH  041%=      5-min Rain = 0
KSP2 242114Z 16012KT 31/16 A2976 RMK A01 T03060160  RH  041%=      5-min Rain = 0
KSP2 242115Z 15011KT 31/16 A2976 RMK A01 T03060162  RH  042%=      5-min Rain = 0
KSP2 242116Z 17011KT 31/16 A2976 RMK A01 T03080161  RH  041%=      5-min Rain = 0
KSP2 242117Z 17011KT 31/16 A2976 RMK A01 T03060161  RH  041%=      5-min Rain = 0
KSP2 242118Z 18014KT 31/16 A2976 RMK A01 T03060162  RH  042%=      5-min Rain = 0
KSP2 242119Z 16011G16KT 31/16 A2976 RMK A01 T03080162  RH  041%=      5-min Rain = 0
KSP2 242120Z 16010KT 31/16 A2976 RMK A01 T03090161  RH  041%=      5-min Rain = 0
KSP2 242121Z 15010KT 31/16 A2976 RMK A01 T03080162  RH  042%=      5-min Rain = 0
KSP2 242122Z 15013KT 31/16 A2976 RMK A01 T03080159  RH  041%=      5-min Rain = 0
KSP2 242123Z 15014KT 31/16 A2976 RMK A01 T03080157  RH  040%=      5-min Rain = 0
KSP2 242124Z 14010G17KT 31/16 A2976 RMK A01 T03060159  RH  041%=      5-min Rain = 0
KSP2 242125Z 14015KT 31/16 A2975 RMK A01 T03070157  RH  040%=      5-min Rain = 0
KSP2 242126Z 15014KT 31/15 A2975 RMK A01 T03080154  RH  039%=      5-min Rain = 0
KSP2 242127Z 15014KT 30/15 A2975 RMK A01 T03030151  RH  040%=      5-min Rain = 0
KSP2 242128Z 15013KT 30/15 A2975 RMK A01 T02990151  RH  040%=      5-min Rain = 0
KSP2 242129Z 16011KT 30/15 A2975 RMK A01 T02990150  RH  040%=      5-min Rain = 0
KSP2 242130Z 15009KT 30/15 A2975 RMK A01 T02980150  RH  041%=      5-min Rain = 0
KSP2 242131Z 15010KT 30/15 A2975 RMK A01 T03000153  RH  041%=      5-min Rain = 0
KSP2 242132Z 16011KT 30/15 A2975 RMK A01 T03030153  RH  040%=      5-min Rain = 0
KSP2 242133Z 17015G20KT 31/15 A2975 RMK A01 T03050153  RH  040%=      5-min Rain = 0
KSP2 242134Z 18015KT 31/16 A2975 RMK A01 T03080157  RH  040%=      5-min Rain = 0
KSP2 242135Z 18013KT 31/16 A2975 RMK A01 T03090158  RH  040%=      5-min Rain = 0
KSP2 242136Z 17011KT 31/15 A2975 RMK A01 T03080153  RH  039%=      5-min Rain = 0
KSP2 242137Z 14008KT 31/15 A2975 RMK A01 T03050154  RH  040%=      5-min Rain = 0
KSP2 242138Z 16012KT 30/15 A2974 RMK A01 T03040152  RH  040%=      5-min Rain = 0
KSP2 242139Z 17009KT 31/15 A2974 RMK A01 T03050152  RH  040%=      5-min Rain = 0
KSP2 242140Z 18012G17KT 31/15 A2974 RMK A01 T03050154  RH  040%=      5-min Rain = 0
KSP2 242141Z 18014KT 31/16 A2974 RMK A01 T03070158  RH  041%=      5-min Rain = 0
KSP2 242142Z 18014KT 31/16 A2974 RMK A01 T03060157  RH  041%=      5-min Rain = 0
KSP2 242143Z 17014KT 31/15 A2974 RMK A01 T03050154  RH  040%=      5-min Rain = 0
KSP2 242144Z 17011KT 31/16 A2974 RMK A01 T03060156  RH  040%=      5-min Rain = 0
KSP2 242145Z 17011KT 31/16 A2974 RMK A01 T03080157  RH  040%=      5-min Rain = 0
KSP2 242146Z 17007KT 31/16 A2974 RMK A01 T03070157  RH  040%=      5-min Rain = 0
KSP2 242147Z 16009KT 31/16 A2974 RMK A01 T03050156  RH  041%=      5-min Rain = 0
KSP2 242148Z 18010KT 30/16 A2974 RMK A01 T03030155  RH  041%=      5-min Rain = 0
KSP2 242149Z 16011KT 30/15 A2974 RMK A01 T03010154  RH  041%=      5-min Rain = 0
KSP2 242150Z 15012KT 30/15 A2974 RMK A01 T03020153  RH  040%=      5-min Rain = 0
KSP2 242151Z 15011KT 30/15 A2973 RMK A01 T03040154  RH  040%=      5-min Rain = 0
KSP2 242152Z 14011KT 31/16 A2973 RMK A01 T03050156  RH  041%=      5-min Rain = 0
KSP2 242153Z 16013G18KT 31/16 A2973 RMK A01 T03060157  RH  041%=      5-min Rain = 0
KSP2 242154Z 17014KT 31/15 A2973 RMK A01 T03080154  RH  039%=      5-min Rain = 0
KSP2 242155Z 15010KT 31/16 A2973 RMK A01 T03070155  RH  040%=      5-min Rain = 0
KSP2 242156Z 17009KT 31/16 A2973 RMK A01 T03070157  RH  040%=      5-min Rain = 0
KSP2 242157Z 18008G13KT 31/15 A2973 RMK A01 T03070154  RH  040%=      5-min Rain = 0
KSP2 242158Z 16013KT 31/15 A2973 RMK A01 T03070154  RH  040%=      5-min Rain = 0
KSP2 242159Z 15013KT 31/15 A2973 RMK A01 T03080151  RH  039%=      5-min Rain = 0
KSP2 242200Z 15012KT 31/15 A2973 RMK A01 T03070153  RH  039%=      5-min Rain = 0
KSP2 242201Z 16010KT 31/15 A2973 RMK A01 T03070154  RH  039%=      5-min Rain = 0
KSP2 242202Z 17008KT 31/15 A2973 RMK A01 T03090151  RH  038%=      5-min Rain = 0
KSP2 242203Z 16011KT 31/15 A2973 RMK A01 T03090153  RH  039%=      5-min Rain = 0
KSP2 242204Z 15010KT 31/16 A2973 RMK A01 T03090155  RH  039%=      5-min Rain = 0
KSP2 242205Z 17011KT 31/16 A2972 RMK A01 T03100155  RH  039%=      5-min Rain = 0
KSP2 242206Z 16010KT 31/16 A2972 RMK A01 T03120157  RH  039%=      5-min Rain = 0
KSP2 242207Z 16015KT 31/16 A2972 RMK A01 T03140155  RH  038%=      5-min Rain = 0
KSP2 242208Z 16013KT 31/15 A2972 RMK A01 T03140152  RH  038%=      5-min Rain = 0
KSP2 242209Z 17013KT 31/15 A2972 RMK A01 T03100148  RH  037%=      5-min Rain = 0
KSP2 242210Z 16011KT 31/15 A2972 RMK A01 T03050148  RH  038%=      5-min Rain = 0
KSP2 242211Z 17008KT 31/15 A2972 RMK A01 T03050148  RH  039%=      5-min Rain = 0
KSP2 242212Z 16010G17KT 31/15 A2972 RMK A01 T03060145  RH  038%=      5-min Rain = 0
KSP2 242213Z 14009KT 31/15 A2972 RMK A01 T03070147  RH  038%=      5-min Rain = 0
KSP2 242214Z 15006KT 31/15 A2972 RMK A01 T03070148  RH  038%=      5-min Rain = 0
KSP2 242215Z 14008KT 31/15 A2972 RMK A01 T03080145  RH  037%=      5-min Rain = 0
KSP2 242216Z 13007KT 31/14 A2972 RMK A01 T03070144  RH  037%=      5-min Rain = 0
KSP2 242217Z 14012KT 31/15 A2972 RMK A01 T03070145  RH  037%=      5-min Rain = 0
KSP2 242218Z 15010KT 31/14 A2972 RMK A01 T03090142  RH  036%=      5-min Rain = 0
KSP2 242219Z 16009KT 31/14 A2972 RMK A01 T03090141  RH  036%=      5-min Rain = 0
KSP2 242220Z 15011KT 31/14 A2972 RMK A01 T03080142  RH  036%=      5-min Rain = 0
KSP2 242221Z 16010KT 31/15 A2972 RMK A01 T03080145  RH  037%=      5-min Rain = 0
KSP2 242222Z 12008KT 31/14 A2972 RMK A01 T03060144  RH  037%=      5-min Rain = 0
KSP2 242223Z 14006KT 31/15 A2972 RMK A01 T03070145  RH  037%=      5-min Rain = 0
KSP2 242224Z 14006G11KT 31/15 A2972 RMK A01 T03080145  RH  037%=      5-min Rain = 0
KSP2 242225Z 16013KT 31/15 A2972 RMK A01 T03100148  RH  037%=      5-min Rain = 0
KSP2 242226Z 16013KT 31/15 A2972 RMK A01 T03100149  RH  038%=      5-min Rain = 0
KSP2 242227Z 15010KT 31/15 A2972 RMK A01 T03110148  RH  037%=      5-min Rain = 0
KSP2 242228Z 14007KT 31/15 A2972 RMK A01 T03090147  RH  037%=      5-min Rain = 0
KSP2 242229Z 16012KT 31/15 A2972 RMK A01 T03080147  RH  038%=      5-min Rain = 0
KSP2 242230Z 16010KT 31/15 A2972 RMK A01 T03050147  RH  038%=      5-min Rain = 0
KSP2 242231Z 16008KT 30/15 A2972 RMK A01 T03010148  RH  039%=      5-min Rain = 0
KSP2 242232Z 16006KT 30/15 A2972 RMK A01 T02990147  RH  039%=      5-min Rain = 0
KSP2 242233Z 17004KT 30/15 A2972 RMK A01 T02980145  RH  039%=      5-min Rain = 0
KSP2 242234Z 16004KT 30/14 A2972 RMK A01 T02980143  RH  039%=      5-min Rain = 0
KSP2 242235Z 14004KT 30/14 A2972 RMK A01 T03000144  RH  039%=      5-min Rain = 0
KSP2 242236Z 14010KT 30/15 A2972 RMK A01 T03040146  RH  038%=      5-min Rain = 0
KSP2 242237Z 14007KT 31/15 A2971 RMK A01 T03070145  RH  037%=      5-min Rain = 0
KSP2 242238Z 17004KT 31/15 A2971 RMK A01 T03080146  RH  037%=      5-min Rain = 0
KSP2 242239Z 13009KT 31/15 A2971 RMK A01 T03070147  RH  038%=      5-min Rain = 0
KSP2 242240Z 14010KT 31/15 A2971 RMK A01 T03070151  RH  039%=      5-min Rain = 0
KSP2 242241Z 13008KT 31/15 A2971 RMK A01 T03060150  RH  039%=      5-min Rain = 0
KSP2 242242Z 14007KT 31/15 A2971 RMK A01 T03060150  RH  039%=      5-min Rain = 0
KSP2 242243Z 14007KT 31/15 A2971 RMK A01 T03050150  RH  039%=      5-min Rain = 0
KSP2 242244Z 12010KT 31/15 A2971 RMK A01 T03060152  RH  039%=      5-min Rain = 0
KSP2 242245Z 16009KT 31/15 A2971 RMK A01 T03090151  RH  038%=      5-min Rain = 0
KSP2 242246Z 14010KT 31/15 A2971 RMK A01 T03110148  RH  037%=      5-min Rain = 0
KSP2 242247Z 15010KT 31/15 A297 RMK A01 T03120150  RH  038%=      5-min Rain = 0
KSP2 242248Z 14010KT 31/15 A297 RMK A01 T03110147  RH  037%=      5-min Rain = 0
KSP2 242249Z 13011KT 31/15 A297 RMK A01 T03090145  RH  037%=      5-min Rain = 0
KSP2 242250Z 12009KT 31/15 A297 RMK A01 T03090145  RH  037%=      5-min Rain = 0
KSP2 242251Z 14007KT 31/15 A297 RMK A01 T03090145  RH  037%=      5-min Rain = 0
KSP2 242252Z 17010G15KT 31/15 A297 RMK A01 T03090147  RH  037%=      5-min Rain = 0
KSP2 242253Z 18010KT 31/14 A297 RMK A01 T03100144  RH  036%=      5-min Rain = 0
KSP2 242254Z 17013KT 31/15 A297 RMK A01 T03100145  RH  037%=      5-min Rain = 0
KSP2 242255Z 16010KT 31/15 A297 RMK A01 T03110146  RH  037%=      5-min Rain = 0
KSP2 242256Z 15010KT 31/15 A297 RMK A01 T03140153  RH  038%=      5-min Rain = 0
KSP2 242257Z 16009KT 32/15 A297 RMK A01 T03150152  RH  037%=      5-min Rain = 0
KSP2 242258Z 15007KT 31/15 A297 RMK A01 T03130152  RH  038%=      5-min Rain = 0
KSP2 242259Z 13006KT 31/15 A297 RMK A01 T03130150  RH  037%=      5-min Rain = 0
KSP2 242300Z 15007G12KT 31/15 A297 RMK A01 T03100151  RH  038%=      5-min Rain = 0
KSP2 242301Z 16006KT 31/15 A297 RMK A01 T03100145  RH  037%=      5-min Rain = 0
KSP2 242302Z 15008KT 31/14 A2969 RMK A01 T03110142  RH  036%=      5-min Rain = 0
KSP2 242303Z 16006KT 31/14 A2969 RMK A01 T03120142  RH  036%=      5-min Rain = 0
KSP2 242304Z 16006KT 31/14 A2969 RMK A01 T03120143  RH  036%=      5-min Rain = 0
KSP2 242305Z 14005KT 31/14 A2969 RMK A01 T03110143  RH  036%=      5-min Rain = 0
KSP2 242306Z 13010KT 31/15 A2969 RMK A01 T03100148  RH  037%=      5-min Rain = 0
KSP2 242307Z 13008KT 31/15 A2969 RMK A01 T03100145  RH  037%=      5-min Rain = 0
KSP2 242308Z 13010KT 31/15 A2969 RMK A01 T03110146  RH  037%=      5-min Rain = 0
KSP2 242309Z 12011KT 31/15 A2969 RMK A01 T03110147  RH  037%=      5-min Rain = 0
KSP2 242310Z 12012KT 31/15 A297 RMK A01 T03090148  RH  038%=      5-min Rain = 0
KSP2 242311Z 13010KT 31/15 A297 RMK A01 T03080148  RH  038%=      5-min Rain = 0
KSP2 242312Z 14007KT 31/15 A297 RMK A01 T03070148  RH  038%=      5-min Rain = 0
KSP2 242313Z 15007KT 31/15 A297 RMK A01 T03050148  RH  039%=      5-min Rain = 0
KSP2 242314Z 15008KT 31/15 A2971 RMK A01 T03050150  RH  039%=      5-min Rain = 0
KSP2 242315Z 19010KT 30/15 A2971 RMK A01 T03040152  RH  040%=      5-min Rain = 0
KSP2 242316Z 17011KT 30/14 A2971 RMK A01 T03030143  RH  038%=      5-min Rain = 0
KSP2 242317Z 17010KT 30/14 A2971 RMK A01 T03010142  RH  038%=      5-min Rain = 0
KSP2 242318Z 17007KT 30/14 A2971 RMK A01 T02990141  RH  038%=      5-min Rain = 0
KSP2 242319Z 17008KT 30/14 A2971 RMK A01 T02970142  RH  039%=      5-min Rain = 0
KSP2 242320Z 19007KT 30/14 A2971 RMK A01 T02960142  RH  039%=      5-min Rain = 0
KSP2 242321Z 19009KT 30/15 A2971 RMK A01 T02950145  RH  040%=      5-min Rain = 0
KSP2 242322Z 19010KT 29/14 A2971 RMK A01 T02940144  RH  040%=      5-min Rain = 0
KSP2 242323Z 19009KT 29/14 A2971 RMK A01 T02930143  RH  040%=      5-min Rain = 0
KSP2 242324Z 18009KT 29/14 A2971 RMK A01 T02920144  RH  040%=      5-min Rain = 0
KSP2 242325Z 17011KT 29/14 A2971 RMK A01 T02920143  RH  040%=      5-min Rain = 0
KSP2 242326Z 18009KT 29/14 A2971 RMK A01 T02920142  RH  040%=      5-min Rain = 0
KSP2 242327Z 18008KT 29/14 A2971 RMK A01 T02920142  RH  040%=      5-min Rain = 0
KSP2 242328Z 18009KT 29/14 A297 RMK A01 T02920143  RH  040%=      5-min Rain = 0
KSP2 242329Z 17011KT 29/14 A297 RMK A01 T02920142  RH  040%=      5-min Rain = 0
KSP2 242330Z 17012KT 29/14 A297 RMK A01 T02910142  RH  040%=      5-min Rain = 0
KSP2 242331Z 17011KT 29/14 A297 RMK A01 T02910143  RH  040%=      5-min Rain = 0
KSP2 242332Z 16011KT 29/14 A297 RMK A01 T02910144  RH  041%=      5-min Rain = 0
KSP2 242333Z 16010KT 29/14 A297 RMK A01 T02900143  RH  041%=      5-min Rain = 0
KSP2 242334Z 16010KT 29/14 A297 RMK A01 T02900144  RH  041%=      5-min Rain = 0
KSP2 242335Z 16011KT 29/15 A297 RMK A01 T02890146  RH  042%=      5-min Rain = 0
KSP2 242336Z 16011KT 29/15 A297 RMK A01 T02880147  RH  042%=      5-min Rain = 0
KSP2 242337Z 16012KT 29/15 A297 RMK A01 T02880149  RH  043%=      5-min Rain = 0
KSP2 242338Z 17012KT 29/15 A297 RMK A01 T02870150  RH  043%=      5-min Rain = 0
KSP2 242339Z 16012KT 29/15 A297 RMK A01 T02870149  RH  043%=      5-min Rain = 0
KSP2 242340Z 16011KT 29/15 A297 RMK A01 T02870150  RH  043%=      5-min Rain = 0
KSP2 242341Z 16012KT 29/15 A297 RMK A01 T02860150  RH  043%=      5-min Rain = 0
KSP2 242342Z 16013KT 29/15 A2969 RMK A01 T02850149  RH  043%=      5-min Rain = 0
KSP2 242343Z 16014KT 29/15 A2969 RMK A01 T02850147  RH  043%=      5-min Rain = 0
KSP2 242344Z 16012KT 29/15 A2969 RMK A01 T02850147  RH  043%=      5-min Rain = 0
KSP2 242345Z 16011KT 28/15 A2969 RMK A01 T02840147  RH  043%=      5-min Rain = 0
KSP2 242346Z 16010KT 28/15 A2969 RMK A01 T02840147  RH  043%=      5-min Rain = 0
KSP2 242347Z 16009KT 28/15 A2969 RMK A01 T02830147  RH  043%=      5-min Rain = 0
KSP2 242348Z 16011KT 28/15 A2969 RMK A01 T02820147  RH  044%=      5-min Rain = 0
KSP2 242349Z 16012KT 28/15 A2969 RMK A01 T02820146  RH  044%=      5-min Rain = 0
KSP2 242350Z 16012KT 28/15 A2969 RMK A01 T02820146  RH  043%=      5-min Rain = 0
KSP2 242351Z 16014KT 28/15 A2969 RMK A01 T02820145  RH  043%=      5-min Rain = 0
KSP2 242352Z 16011KT 28/15 A2969 RMK A01 T02820146  RH  043%=      5-min Rain = 0
KSP2 242353Z 16011KT 28/15 A2969 RMK A01 T02810146  RH  043%=      5-min Rain = 0
KSP2 242354Z 16011KT 28/15 A2969 RMK A01 T02810146  RH  044%=      5-min Rain = 0
KSP2 242355Z 16011KT 28/15 A2969 RMK A01 T02810146  RH  044%=      5-min Rain = 0
KSP2 242356Z 16013KT 28/15 A2969 RMK A01 T02800147  RH  044%=      5-min Rain = 0
KSP2 242357Z 16013KT 28/15 A2969 RMK A01 T02800147  RH  044%=      5-min Rain = 0
KSP2 242358Z 16014KT 28/15 A2969 RMK A01 T02800148  RH  044%=      5-min Rain = 0
KSP2 242359Z 16014KT 28/15 A2969 RMK A01 T02800148  RH  045%=      5-min Rain = 0
KSP2 250000Z 16012KT 28/15 A2968 RMK A01 T02790149  RH  045%=      5-min Rain = 0
KSP2 250001Z 15013KT 28/15 A2968 RMK A01 T02790150  RH  045%=      5-min Rain = 0
KSP2 250002Z 15012KT 28/15 A2968 RMK A01 T02780150  RH  045%=      5-min Rain = 0
KSP2 250003Z 15011KT 28/15 A2968 RMK A01 T02780150  RH  046%=      5-min Rain = 0
KSP2 250004Z 14013KT 28/15 A2968 RMK A01 T02780150  RH  046%=      5-min Rain = 0
KSP2 250005Z 15012KT 28/15 A2968 RMK A01 T02780149  RH  045%=      5-min Rain = 0
KSP2 250006Z 15013KT 28/15 A2967 RMK A01 T02780149  RH  045%=      5-min Rain = 0
KSP2 250007Z 15010KT 28/15 A2967 RMK A01 T02780149  RH  045%=      5-min Rain = 0
KSP2 250008Z 15009KT 28/15 A2967 RMK A01 T02780151  RH  046%=      5-min Rain = 0
KSP2 250009Z 15010KT 28/15 A2967 RMK A01 T02770150  RH  046%=      5-min Rain = 0
KSP2 250010Z 16011KT 28/15 A2968 RMK A01 T02760150  RH  046%=      5-min Rain = 0
KSP2 250011Z 16010KT 28/15 A2968 RMK A01 T02750150  RH  046%=      5-min Rain = 0
KSP2 250012Z 16009KT 28/15 A2968 RMK A01 T02750151  RH  047%=      5-min Rain = 0
KSP2 250013Z 16009KT 27/15 A2968 RMK A01 T02740151  RH  047%=      5-min Rain = 0
KSP2 250014Z 17008KT 27/15 A2968 RMK A01 T02730151  RH  047%=      5-min Rain = 0
KSP2 250015Z 17010KT 27/15 A2969 RMK A01 T02720151  RH  047%=      5-min Rain = 0
KSP2 250016Z 17010KT 27/15 A2969 RMK A01 T02720151  RH  048%=      5-min Rain = 0
KSP2 250017Z 16011KT 27/15 A2969 RMK A01 T02720152  RH  048%=      5-min Rain = 0
KSP2 250018Z 16009KT 27/15 A2969 RMK A01 T02710153  RH  048%=      5-min Rain = 0
KSP2 250019Z 16009KT 27/15 A2969 RMK A01 T02710153  RH  049%=      5-min Rain = 0
KSP2 250020Z 16009KT 27/15 A2969 RMK A01 T02700154  RH  049%=      5-min Rain = 0
KSP2 250021Z 16009KT 27/15 A2969 RMK A01 T02700154  RH  049%=      5-min Rain = 0
KSP2 250022Z 16011KT 27/15 A2969 RMK A01 T02690154  RH  049%=      5-min Rain = 0
KSP2 250023Z 16010KT 27/16 A2969 RMK A01 T02690155  RH  050%=      5-min Rain = 0
KSP2 250024Z 16010KT 27/16 A2969 RMK A01 T02690155  RH  050%=      5-min Rain = 0
KSP2 250025Z 16010KT 27/16 A2969 RMK A01 T02690155  RH  050%=      5-min Rain = 0
KSP2 250026Z 16015KT 27/15 A2969 RMK A01 T02690154  RH  049%=      5-min Rain = 0
KSP2 250027Z 19020G30KT 27/14 A2969 RMK A01 T02690137  RH  044%=      5-min Rain = 0
KSP2 250028Z 21020G32KT 27/12 A2969 RMK A01 T02660117  RH  040%=      5-min Rain = 0
KSP2 250029Z 20023G28KT 26/09 A2969 RMK A01 T02620089  RH  034%=      5-min Rain = 0
KSP2 250030Z 19021G29KT 26/09 A297 RMK A01 T02600089  RH  034%=      5-min Rain = 0
KSP2 250031Z 22019G25KT 26/09 A297 RMK A01 T02590085  RH  033%=      5-min Rain = 0
KSP2 250032Z 22023G29KT 26/07 A297 RMK A01 T02570071  RH  031%=      5-min Rain = 0
KSP2 250033Z 23020G30KT 25/07 A297 RMK A01 T02540067  RH  030%=      5-min Rain = 0
KSP2 250034Z 23028G34KT 25/07 A297 RMK A01 T02510067  RH  031%=      5-min Rain = 0
KSP2 250035Z 24031G41KT 25/06 A297 RMK A01 T02510062  RH  030%=      5-min Rain = 0
KSP2 250036Z 24035G41KT 25/06 A297 RMK A01 T02510060  RH  029%=      5-min Rain = 0
KSP2 250037Z 24028G34KT 25/06 A2971 RMK A01 T02510058  RH  029%=      5-min Rain = 0
KSP2 250038Z 24028G34KT 25/06 A2971 RMK A01 T02510058  RH  029%=      5-min Rain = 0
KSP2 250039Z 25028G39KT 25/06 A2971 RMK A01 T02490059  RH  029%=      5-min Rain = 0
KSP2 250040Z 25039G46KT 25/06 A2971 RMK A01 T02480060  RH  030%=      5-min Rain = 0
KSP2 250041Z 25038G46KT 25/06 A2971 RMK A01 T02450063  RH  031%=      5-min Rain = 0
KSP2 250042Z 25036G47KT 24/07 A2972 RMK A01 T02430066  RH  032%=      5-min Rain = 0
KSP2 250043Z 24024G32KT 24/07 A2972 RMK A01 T02410068  RH  033%=      5-min Rain = 0
KSP2 250044Z 24023G30KT 24/08 A2973 RMK A01 T02360080  RH  037%=      5-min Rain = 0
KSP2 250045Z 25025G32KT 23/08 A2973 RMK A01 T02300080  RH  038%=      5-min Rain = 0
KSP2 250046Z 24030G42KT 23/08 A2973 RMK A01 T02280080  RH  039%=      5-min Rain = 0
KSP2 250047Z 24031G38KT 23/08 A2973 RMK A01 T02260081  RH  039%=      5-min Rain = 0
KSP2 250048Z 22029G36KT 22/08 A2973 RMK A01 T02240080  RH  039%=      5-min Rain = 0
KSP2 250049Z 24021G26KT 22/09 A2973 RMK A01 T02220085  RH  041%=      5-min Rain = 0
KSP2 250050Z 24022KT 22/09 A2973 RMK A01 T02180092  RH  044%=      5-min Rain = 0
KSP2 250051Z 25024G32KT 21/10 A2973 RMK A01 T02110100  RH  049%=      5-min Rain = 0
KSP2 250052Z 25024KT 20/11 A2973 RMK A01 T02040107  RH  054%=      5-min Rain = 0
KSP2 250053Z 25023G28KT 20/11 A2973 RMK A01 T01970114  RH  059%=      5-min Rain = 0
KSP2 250054Z 25024G31KT 19/12 A2972 RMK A01 T01920117  RH  062%=      5-min Rain = 0
KSP2 250055Z 25026G32KT 19/12 A2971 RMK A01 T01880116  RH  063%=      5-min Rain = 0
KSP2 250056Z 26025G30KT 19/12 A2971 RMK A01 T01860117  RH  064%=      5-min Rain = 0
KSP2 250057Z 26024KT 18/12 A2971 RMK A01 T01830120  RH  067%=      5-min Rain = 0
KSP2 250058Z 25025G30KT 18/12 A2971 RMK A01 T01810119  RH  067%=      5-min Rain = 0
KSP2 250059Z 25023G30KT 18/12 A2971 RMK A01 T01810121  RH  068%=      5-min Rain = 0
KSP2 250100Z 25023KT 18/12 A2971 RMK A01 T01790123  RH  070%=      5-min Rain = 0
KSP2 250101Z 25021G26KT 18/12 A2971 RMK A01 T01780124  RH  071%=      5-min Rain = 0
KSP2 250102Z 25019G25KT 18/13 A2971 RMK A01 T01770126  RH  072%=      5-min Rain = 0
KSP2 250103Z 25021KT 18/13 A2972 RMK A01 T01770125  RH  072%=      5-min Rain = 0
KSP2 250104Z 25021KT 18/12 A2972 RMK A01 T01780122  RH  070%=      5-min Rain = 0
KSP2 250105Z 24021KT 18/12 A2972 RMK A01 T01790121  RH  069%=      5-min Rain = 0
KSP2 250106Z 25018KT 18/12 A2972 RMK A01 T01800122  RH  069%=      5-min Rain = 0
KSP2 250107Z 24021KT 18/12 A2972 RMK A01 T01800121  RH  068%=      5-min Rain = 0
KSP2 250108Z 25018G24KT 18/12 A2972 RMK A01 T01810121  RH  068%=      5-min Rain = 0
KSP2 250109Z 24016KT 18/12 A2973 RMK A01 T01820122  RH  068%=      5-min Rain = 0
KSP2 250110Z 24016KT 18/12 A2973 RMK A01 T01820122  RH  068%=      5-min Rain = 0
KSP2 250111Z 24016G21KT 18/12 A2973 RMK A01 T01830120  RH  067%=      5-min Rain = 0
KSP2 250112Z 24016KT 19/12 A2973 RMK A01 T01850119  RH  065%=      5-min Rain = 0
KSP2 250113Z 24014KT 19/12 A2973 RMK A01 T01860119  RH  065%=      5-min Rain = 0
KSP2 250114Z 25015KT 19/12 A2973 RMK A01 T01860118  RH  064%=      5-min Rain = 0
KSP2 250115Z 25013KT 19/12 A2974 RMK A01 T01860121  RH  066%=      5-min Rain = 0
KSP2 250116Z 25013KT 19/12 A2974 RMK A01 T01850121  RH  066%=      5-min Rain = 0
KSP2 250117Z 24012KT 18/12 A2974 RMK A01 T01840122  RH  067%=      5-min Rain = 0
KSP2 250118Z 25011KT 18/12 A2974 RMK A01 T01840122  RH  067%=      5-min Rain = 0
KSP2 250119Z 24009KT 18/12 A2974 RMK A01 T01830124  RH  068%=      5-min Rain = 0
KSP2 250120Z 24009KT 18/12 A2974 RMK A01 T01820124  RH  069%=      5-min Rain = 0
KSP2 250121Z 24009KT 18/12 A2974 RMK A01 T01820123  RH  069%=      5-min Rain = 0
KSP2 250122Z 24010KT 18/13 A2974 RMK A01 T01820125  RH  069%=      5-min Rain = 0
KSP2 250123Z 23010KT 18/13 A2975 RMK A01 T01820126  RH  070%=      5-min Rain = 0
KSP2 250124Z 23012KT 18/13 A2975 RMK A01 T01810126  RH  070%=      5-min Rain = 0
KSP2 250125Z 23014KT 18/13 A2975 RMK A01 T01810127  RH  070%=      5-min Rain = 0
KSP2 250126Z 24012G17KT 18/12 A2975 RMK A01 T01810123  RH  069%=      5-min Rain = 0
KSP2 250127Z 25018G24KT 18/12 A2975 RMK A01 T01830121  RH  067%=      5-min Rain = 0
KSP2 250128Z 24016G22KT 19/12 A2975 RMK A01 T01860116  RH  063%=      5-min Rain = 0
KSP2 250129Z 24012KT 19/12 A2975 RMK A01 T01880120  RH  065%=      5-min Rain = 0
KSP2 250130Z 24013KT 19/12 A2975 RMK A01 T01860123  RH  066%=      5-min Rain = 0
KSP2 250131Z 24012KT 19/12 A2975 RMK A01 T01850122  RH  067%=      5-min Rain = 0
KSP2 250132Z 24016KT 19/12 A2975 RMK A01 T01850120  RH  066%=      5-min Rain = 0
KSP2 250133Z 25013KT 19/12 A2975 RMK A01 T01860120  RH  066%=      5-min Rain = 0
KSP2 250134Z 24016KT 19/12 A2975 RMK A01 T01860121  RH  066%=      5-min Rain = 0
KSP2 250135Z 24014KT 19/12 A2976 RMK A01 T01850124  RH  067%=      5-min Rain = 0.01
KSP2 250136Z 24016KT 18/13 A2976 RMK A01 T01830125  RH  069%=      5-min Rain = 0
KSP2 250137Z 24016KT 18/12 A2976 RMK A01 T01820123  RH  068%=      5-min Rain = 0
KSP2 250138Z 25016KT 18/12 A2976 RMK A01 T01820124  RH  069%=      5-min Rain = 0
KSP2 250139Z 25016KT 18/12 A2976 RMK A01 T01810122  RH  068%=      5-min Rain = 0
KSP2 250140Z 25016KT 18/12 A2976 RMK A01 T01810119  RH  067%=      5-min Rain = 0
KSP2 250141Z 25014KT 18/12 A2976 RMK A01 T01830120  RH  067%=      5-min Rain = 0
KSP2 250142Z 24013KT 18/12 A2976 RMK A01 T01820122  RH  068%=      5-min Rain = 0
KSP2 250143Z 24012KT 18/12 A2976 RMK A01 T01810124  RH  069%=      5-min Rain = 0.01
KSP2 250144Z 24015KT 18/12 A2976 RMK A01 T01790122  RH  069%=      5-min Rain = 0
KSP2 250145Z 24014KT 18/12 A2976 RMK A01 T01790123  RH  070%=      5-min Rain = 0
KSP2 250146Z 24012KT 18/12 A2976 RMK A01 T01790123  RH  070%=      5-min Rain = 0
KSP2 250147Z 24012KT 18/13 A2976 RMK A01 T01780125  RH  071%=      5-min Rain = 0.01
KSP2 250148Z 24012KT 18/13 A2976 RMK A01 T01770126  RH  072%=      5-min Rain = 0
KSP2 250149Z 25011KT 18/13 A2976 RMK A01 T01760125  RH  072%=      5-min Rain = 0
KSP2 250150Z 25011KT 18/12 A2976 RMK A01 T01760124  RH  071%=      5-min Rain = 0
KSP2 250151Z 25010KT 18/13 A2976 RMK A01 T01770125  RH  072%=      5-min Rain = 0
KSP2 250152Z 24009KT 18/13 A2976 RMK A01 T01760127  RH  073%=      5-min Rain = 0.01
KSP2 250153Z 25010KT 17/13 A2976 RMK A01 T01740127  RH  074%=      5-min Rain = 0
KSP2 250154Z 25010KT 17/13 A2977 RMK A01 T01740128  RH  074%=      5-min Rain = 0
KSP2 250155Z 26009KT 17/13 A2977 RMK A01 T01740128  RH  075%=      5-min Rain = 0
KSP2 250156Z 26008KT 17/13 A2977 RMK A01 T01740128  RH  075%=      5-min Rain = 0
KSP2 250157Z 27008KT 17/13 A2977 RMK A01 T01730129  RH  075%=      5-min Rain = 0.01
KSP2 250158Z 27009KT 17/13 A2977 RMK A01 T01730130  RH  076%=      5-min Rain = 0
KSP2 250159Z 26008KT 17/13 A2977 RMK A01 T01710131  RH  077%=      5-min Rain = 0
KSP2 250200Z 27008KT 17/13 A2977 RMK A01 T01700132  RH  078%=      5-min Rain = 0.01
KSP2 250201Z 26007KT 17/13 A2977 RMK A01 T01690133  RH  079%=      5-min Rain = 0
KSP2 250202Z 27007KT 17/13 A2977 RMK A01 T01680134  RH  080%=      5-min Rain = 0
KSP2 250203Z 29006KT 17/13 A2977 RMK A01 T01670132  RH  080%=      5-min Rain = 0.01
KSP2 250204Z 30007KT 17/13 A2977 RMK A01 T01660134  RH  081%=      5-min Rain = 0
KSP2 250205Z 32006KT 17/13 A2977 RMK A01 T01660134  RH  082%=      5-min Rain = 0.01
KSP2 250206Z 33006KT 17/14 A2976 RMK A01 T01660135  RH  082%=      5-min Rain = 0
KSP2 250207Z 31008KT 17/14 A2976 RMK A01 T01660136  RH  082%=      5-min Rain = 0
KSP2 250208Z 32010KT 17/13 A2976 RMK A01 T01660134  RH  082%=      5-min Rain = 0
KSP2 250209Z 33012KT 17/13 A2976 RMK A01 T01670131  RH  079%=      5-min Rain = 0.01
KSP2 250210Z 34013KT 17/13 A2975 RMK A01 T01700126  RH  076%=      5-min Rain = 0
KSP2 250211Z 33017KT 17/12 A2974 RMK A01 T01730120  RH  071%=      5-min Rain = 0.01
KSP2 250212Z 34015KT 18/12 A2974 RMK A01 T01790116  RH  067%=      5-min Rain = 0
KSP2 250213Z 35016KT 18/12 A2972 RMK A01 T01800121  RH  069%=      5-min Rain = 0.01
KSP2 250214Z 00018KT 18/12 A2971 RMK A01 T01780121  RH  069%=      5-min Rain = 0
KSP2 250215Z 00019KT 18/12 A2971 RMK A01 T01770120  RH  069%=      5-min Rain = 0
KSP2 250216Z 01020KT 18/13 A297 RMK A01 T01750127  RH  073%=      5-min Rain = 0
KSP2 250217Z 01022KT 17/13 A2969 RMK A01 T01730126  RH  074%=      5-min Rain = 0
KSP2 250218Z 01023KT 17/12 A2968 RMK A01 T01730118  RH  070%=      5-min Rain = 0
KSP2 250219Z 01022KT 18/11 A2968 RMK A01 T01770113  RH  066%=      5-min Rain = 0
KSP2 250220Z 00021KT 18/11 A2968 RMK A01 T01800113  RH  065%=      5-min Rain = 0
KSP2 250221Z 00020KT 18/11 A2969 RMK A01 T01830109  RH  062%=      5-min Rain = 0
KSP2 250222Z 00020KT 19/11 A297 RMK A01 T01860109  RH  061%=      5-min Rain = 0
KSP2 250223Z 36019G26KT 19/11 A297 RMK A01 T01870109  RH  060%=      5-min Rain = 0
KSP2 250224Z 00020KT 19/10 A297 RMK A01 T01900103  RH  057%=      5-min Rain = 0
KSP2 250225Z 02017KT 19/11 A2969 RMK A01 T01940105  RH  056%=      5-min Rain = 0
KSP2 250226Z 02016KT 19/10 A2969 RMK A01 T01940104  RH  056%=      5-min Rain = 0
KSP2 250227Z 04014KT 19/11 A2968 RMK A01 T01940105  RH  056%=      5-min Rain = 0
KSP2 250228Z 04015G20KT 19/11 A2968 RMK A01 T01920110  RH  059%=      5-min Rain = 0
KSP2 250229Z 04016KT 19/11 A2969 RMK A01 T01900111  RH  060%=      5-min Rain = 0
KSP2 250230Z 03014G20KT 19/11 A2969 RMK A01 T01880113  RH  062%=      5-min Rain = 0
KSP2 250231Z 04017KT 19/11 A297 RMK A01 T01860108  RH  060%=      5-min Rain = 0
KSP2 250232Z 04014KT 19/11 A297 RMK A01 T01880109  RH  060%=      5-min Rain = 0
KSP2 250233Z 04014KT 19/11 A297 RMK A01 T01880111  RH  061%=      5-min Rain = 0.01
KSP2 250234Z 04012KT 19/11 A2971 RMK A01 T01870112  RH  062%=      5-min Rain = 0
KSP2 250235Z 04011KT 19/11 A2971 RMK A01 T01850114  RH  063%=      5-min Rain = 0
KSP2 250236Z 04013KT 18/12 A2971 RMK A01 T01830115  RH  064%=      5-min Rain = 0
KSP2 250237Z 04011KT 18/11 A2971 RMK A01 T01830112  RH  063%=      5-min Rain = 0
KSP2 250238Z 05010KT 18/11 A297 RMK A01 T01830114  RH  064%=      5-min Rain = 0
KSP2 250239Z 05012KT 18/12 A297 RMK A01 T01820116  RH  065%=      5-min Rain = 0
KSP2 250240Z 05013KT 18/11 A297 RMK A01 T01820113  RH  064%=      5-min Rain = 0
KSP2 250241Z 04011KT 18/11 A2971 RMK A01 T01830113  RH  064%=      5-min Rain = 0
KSP2 250242Z 04010KT 18/11 A2971 RMK A01 T01830113  RH  063%=      5-min Rain = 0
KSP2 250243Z 05011KT 18/11 A2971 RMK A01 T01840111  RH  062%=      5-min Rain = 0
KSP2 250244Z 05010KT 19/11 A2971 RMK A01 T01850114  RH  063%=      5-min Rain = 0
KSP2 250245Z 05011KT 19/12 A2971 RMK A01 T01850116  RH  064%=      5-min Rain = 0
KSP2 250246Z 05012KT 18/11 A297 RMK A01 T01840112  RH  063%=      5-min Rain = 0
KSP2 250247Z 05011KT 19/11 A297 RMK A01 T01860107  RH  060%=      5-min Rain = 0
KSP2 250248Z 05012KT 19/11 A297 RMK A01 T01890106  RH  058%=      5-min Rain = 0
KSP2 250249Z 05012KT 19/10 A297 RMK A01 T01910103  RH  057%=      5-min Rain = 0
KSP2 250250Z 06014G19KT 19/10 A297 RMK A01 T01920104  RH  057%=      5-min Rain = 0
KSP2 250251Z 06013KT 19/11 A297 RMK A01 T01920107  RH  058%=      5-min Rain = 0
KSP2 250252Z 06011KT 19/11 A2971 RMK A01 T01910108  RH  059%=      5-min Rain = 0
KSP2 250253Z 07010KT 19/11 A2972 RMK A01 T01900108  RH  059%=      5-min Rain = 0
KSP2 250254Z 09009KT 19/11 A2972 RMK A01 T01890108  RH  059%=      5-min Rain = 0
KSP2 250255Z 09010KT 19/11 A2972 RMK A01 T01890108  RH  060%=      5-min Rain = 0
KSP2 250256Z 09011KT 19/11 A2972 RMK A01 T01880109  RH  060%=      5-min Rain = 0
KSP2 250257Z 09013KT 19/11 A2972 RMK A01 T01880107  RH  059%=      5-min Rain = 0
KSP2 250258Z 09013KT 19/11 A2972 RMK A01 T01880106  RH  059%=      5-min Rain = 0
KSP2 250259Z 09012G18KT 19/11 A2972 RMK A01 T01890109  RH  060%=      5-min Rain = 0
KSP2 250300Z 10015KT 19/11 A2972 RMK A01 T01890107  RH  059%=      5-min Rain = 0
KSP2 250301Z 09016KT 19/10 A2972 RMK A01 T01900103  RH  057%=      5-min Rain = 0
KSP2 250302Z 09013KT 19/10 A2972 RMK A01 T01930104  RH  056%=      5-min Rain = 0
KSP2 250303Z 10012KT 19/11 A2973 RMK A01 T01930108  RH  058%=      5-min Rain = 0
KSP2 250304Z 10015KT 19/11 A2973 RMK A01 T01920105  RH  057%=      5-min Rain = 0
KSP2 250305Z 09013KT 19/10 A2973 RMK A01 T01930103  RH  056%=      5-min Rain = 0
KSP2 250306Z 11012KT 19/11 A2973 RMK A01 T01930108  RH  058%=      5-min Rain = 0
KSP2 250307Z 09013KT 19/11 A2973 RMK A01 T01900111  RH  060%=      5-min Rain = 0
KSP2 250308Z 09012KT 19/11 A2973 RMK A01 T01880108  RH  060%=      5-min Rain = 0
KSP2 250309Z 07010KT 19/11 A2974 RMK A01 T01880107  RH  059%=      5-min Rain = 0
KSP2 250310Z 08012KT 19/11 A2974 RMK A01 T01880110  RH  061%=      5-min Rain = 0
KSP2 250311Z 08010KT 19/11 A2974 RMK A01 T01870109  RH  060%=      5-min Rain = 0
KSP2 250312Z 08013KT 19/11 A2973 RMK A01 T01860114  RH  063%=      5-min Rain = 0
KSP2 250313Z 08018KT 19/11 A2973 RMK A01 T01850112  RH  063%=      5-min Rain = 0
KSP2 250314Z 09020KT 18/11 A2973 RMK A01 T01840111  RH  062%=      5-min Rain = 0
KSP2 250315Z 10017KT 19/11 A2974 RMK A01 T01850114  RH  063%=      5-min Rain = 0
KSP2 250316Z 10015KT 18/12 A2975 RMK A01 T01830117  RH  066%=      5-min Rain = 0
KSP2 250317Z 10016G21KT 18/12 A2975 RMK A01 T01800117  RH  066%=      5-min Rain = 0
KSP2 250318Z 10017KT 18/12 A2975 RMK A01 T01800117  RH  067%=      5-min Rain = 0
KSP2 250319Z 10017G25KT 18/12 A2975 RMK A01 T01800118  RH  067%=      5-min Rain = 0
KSP2 250320Z 09019G25KT 18/12 A2974 RMK A01 T01800119  RH  067%=      5-min Rain = 0
KSP2 250321Z 09018KT 18/12 A2974 RMK A01 T01800117  RH  067%=      5-min Rain = 0
KSP2 250322Z 09020KT 18/12 A2973 RMK A01 T01800118  RH  067%=      5-min Rain = 0
KSP2 250323Z 09020G26KT 18/12 A2972 RMK A01 T01800117  RH  066%=      5-min Rain = 0
KSP2 250324Z 08021G26KT 18/11 A2972 RMK A01 T01810113  RH  064%=      5-min Rain = 0
KSP2 250325Z 08021G26KT 18/11 A2971 RMK A01 T01830112  RH  063%=      5-min Rain = 0
KSP2 250326Z 08020G25KT 18/12 A2972 RMK A01 T01830115  RH  064%=      5-min Rain = 0
KSP2 250327Z 09021G26KT 18/12 A2972 RMK A01 T01820117  RH  065%=      5-min Rain = 0
KSP2 250328Z 09025G30KT 18/12 A2972 RMK A01 T01810117  RH  066%=      5-min Rain = 0
KSP2 250329Z 09021KT 18/12 A2973 RMK A01 T01810118  RH  067%=      5-min Rain = 0
KSP2 250330Z 09019G25KT 18/12 A2973 RMK A01 T01800118  RH  067%=      5-min Rain = 0
KSP2 250331Z 10017G23KT 18/12 A2974 RMK A01 T01800120  RH  068%=      5-min Rain = 0
KSP2 250332Z 09017G22KT 18/12 A2974 RMK A01 T01790119  RH  068%=      5-min Rain = 0
KSP2 250333Z 08019G25KT 18/12 A2974 RMK A01 T01790120  RH  068%=      5-min Rain = 0
KSP2 250334Z 08018KT 18/12 A2974 RMK A01 T01790120  RH  068%=      5-min Rain = 0
KSP2 250335Z 08019G24KT 18/12 A2974 RMK A01 T01780121  RH  069%=      5-min Rain = 0
KSP2 250336Z 08017KT 18/12 A2974 RMK A01 T01780122  RH  070%=      5-min Rain = 0
KSP2 250337Z 07019KT 18/12 A2974 RMK A01 T01770123  RH  071%=      5-min Rain = 0
KSP2 250338Z 08023G28KT 18/12 A2973 RMK A01 T01760123  RH  071%=      5-min Rain = 0
KSP2 250339Z 08022G30KT 18/12 A2973 RMK A01 T01750124  RH  072%=      5-min Rain = 0
KSP2 250340Z 07022KT 17/13 A2973 RMK A01 T01740125  RH  073%=      5-min Rain = 0
KSP2 250341Z 07028G37KT 17/13 A2972 RMK A01 T01730125  RH  073%=      5-min Rain = 0
KSP2 250342Z 08030G35KT 17/12 A2972 RMK A01 T01730124  RH  073%=      5-min Rain = 0
KSP2 250343Z 08028G34KT 17/13 A2972 RMK A01 T01730125  RH  073%=      5-min Rain = 0
KSP2 250344Z 09025G33KT 17/13 A2972 RMK A01 T01720126  RH  074%=      5-min Rain = 0
KSP2 250345Z 09030G35KT 17/13 A2971 RMK A01 T01720126  RH  074%=      5-min Rain = 0
KSP2 250346Z 08029G34KT 17/12 A2971 RMK A01 T01720124  RH  073%=      5-min Rain = 0
KSP2 250347Z 08029KT 17/12 A2971 RMK A01 T01720124  RH  073%=      5-min Rain = 0
KSP2 250348Z 08028G34KT 17/13 A2972 RMK A01 T01720125  RH  074%=      5-min Rain = 0
KSP2 250349Z 07024G29KT 17/13 A2972 RMK A01 T01720126  RH  074%=      5-min Rain = 0
KSP2 250350Z 07022KT 17/13 A2972 RMK A01 T01700127  RH  076%=      5-min Rain = 0
KSP2 250351Z 07024KT 17/13 A2972 RMK A01 T01690128  RH  076%=      5-min Rain = 0
KSP2 250352Z 08023G28KT 17/13 A2972 RMK A01 T01690128  RH  077%=      5-min Rain = 0
KSP2 250353Z 08021G27KT 17/13 A2972 RMK A01 T01680129  RH  077%=      5-min Rain = 0
KSP2 250354Z 08027KT 17/13 A2971 RMK A01 T01670128  RH  078%=      5-min Rain = 0
KSP2 250355Z 08028KT 17/13 A2971 RMK A01 T01670128  RH  078%=      5-min Rain = 0
KSP2 250356Z 09024G29KT 17/13 A2971 RMK A01 T01670128  RH  077%=      5-min Rain = 0
KSP2 250357Z 09024G30KT 17/13 A297 RMK A01 T01670128  RH  078%=      5-min Rain = 0
KSP2 250358Z 08025G33KT 17/13 A2969 RMK A01 T01660127  RH  078%=      5-min Rain = 0
KSP2 250359Z 08022KT 17/13 A297 RMK A01 T01660126  RH  077%=      5-min Rain = 0
KSP2 250400Z 08025G31KT 17/13 A297 RMK A01 T01660126  RH  077%=      5-min Rain = 0
KSP2 250401Z 08021G26KT 17/13 A297 RMK A01 T01660125  RH  077%=      5-min Rain = 0
KSP2 250402Z 08019KT 17/13 A297 RMK A01 T01660125  RH  076%=      5-min Rain = 0
KSP2 250403Z 08024G32KT 17/13 A2969 RMK A01 T01660125  RH  077%=      5-min Rain = 0
KSP2 250404Z 08027G32KT 17/13 A297 RMK A01 T01660125  RH  077%=      5-min Rain = 0
KSP2 250405Z 08026KT 17/13 A297 RMK A01 T01660126  RH  077%=      5-min Rain = 0
KSP2 250406Z 08022G29KT 17/13 A297 RMK A01 T01650127  RH  078%=      5-min Rain = 0
KSP2 250407Z 08019KT 16/13 A297 RMK A01 T01640128  RH  079%=      5-min Rain = 0
KSP2 250408Z 08020G28KT 16/13 A297 RMK A01 T01630129  RH  080%=      5-min Rain = 0
KSP2 250409Z 08022G29KT 16/13 A297 RMK A01 T01620129  RH  080%=      5-min Rain = 0
KSP2 250410Z 08019G24KT 16/13 A297 RMK A01 T01620129  RH  081%=      5-min Rain = 0
KSP2 250411Z 08020G25KT 16/13 A2971 RMK A01 T01610130  RH  082%=      5-min Rain = 0
KSP2 250412Z 09023G33KT 16/13 A297 RMK A01 T01600129  RH  081%=      5-min Rain = 0
KSP2 250413Z 09029KT 16/13 A297 RMK A01 T01600127  RH  081%=      5-min Rain = 0
KSP2 250414Z 09026G31KT 16/13 A2971 RMK A01 T01600127  RH  081%=      5-min Rain = 0
KSP2 250415Z 08021KT 16/13 A2971 RMK A01 T01600128  RH  081%=      5-min Rain = 0
KSP2 250416Z 08025KT 16/13 A297 RMK A01 T01600129  RH  082%=      5-min Rain = 0
KSP2 250417Z 09022G33KT 16/13 A297 RMK A01 T01600129  RH  082%=      5-min Rain = 0
KSP2 250418Z 09024G33KT 16/13 A297 RMK A01 T01600129  RH  082%=      5-min Rain = 0
KSP2 250419Z 08026G35KT 16/13 A297 RMK A01 T01590129  RH  082%=      5-min Rain = 0
KSP2 250420Z 09026G33KT 16/13 A297 RMK A01 T01590129  RH  082%=      5-min Rain = 0
KSP2 250421Z 08024G34KT 16/13 A2971 RMK A01 T01590129  RH  083%=      5-min Rain = 0
KSP2 250422Z 09025G30KT 16/13 A2971 RMK A01 T01580130  RH  083%=      5-min Rain = 0
KSP2 250423Z 09026G31KT 16/13 A2971 RMK A01 T01580129  RH  083%=      5-min Rain = 0
KSP2 250424Z 08018G26KT 16/13 A2971 RMK A01 T01580130  RH  083%=      5-min Rain = 0
KSP2 250425Z 08021KT 16/13 A2971 RMK A01 T01570130  RH  084%=      5-min Rain = 0
KSP2 250426Z 09019G24KT 16/13 A2972 RMK A01 T01570128  RH  083%=      5-min Rain = 0
KSP2 250427Z 08017KT 16/13 A2972 RMK A01 T01580128  RH  083%=      5-min Rain = 0
KSP2 250428Z 09025G30KT 16/13 A2972 RMK A01 T01580128  RH  083%=      5-min Rain = 0
KSP2 250429Z 08026G32KT 16/13 A2972 RMK A01 T01580127  RH  082%=      5-min Rain = 0
KSP2 250430Z 09020KT 16/13 A2973 RMK A01 T01580128  RH  082%=      5-min Rain = 0
KSP2 250431Z 09022G27KT 16/13 A2973 RMK A01 T01580129  RH  083%=      5-min Rain = 0
KSP2 250432Z 09019G25KT 16/13 A2973 RMK A01 T01570129  RH  083%=      5-min Rain = 0
KSP2 250433Z 09018G28KT 16/13 A2973 RMK A01 T01570130  RH  084%=      5-min Rain = 0
KSP2 250434Z 09017G22KT 16/13 A2973 RMK A01 T01560130  RH  085%=      5-min Rain = 0
KSP2 250435Z 09018KT 16/13 A2973 RMK A01 T01560130  RH  085%=      5-min Rain = 0
KSP2 250436Z 09020G27KT 16/13 A2973 RMK A01 T01550129  RH  085%=      5-min Rain = 0
KSP2 250437Z 09023G29KT 16/13 A2973 RMK A01 T01550129  RH  084%=      5-min Rain = 0
KSP2 250438Z 09023KT 16/13 A2973 RMK A01 T01550128  RH  084%=      5-min Rain = 0
KSP2 250439Z 09020G27KT 16/13 A2973 RMK A01 T01560128  RH  083%=      5-min Rain = 0
KSP2 250440Z 09023KT 16/13 A2973 RMK A01 T01560128  RH  083%=      5-min Rain = 0
KSP2 250441Z 09023KT 16/13 A2973 RMK A01 T01560128  RH  083%=      5-min Rain = 0
KSP2 250442Z 09022G27KT 16/13 A2973 RMK A01 T01560128  RH  083%=      5-min Rain = 0
KSP2 250443Z 09021KT 16/13 A2974 RMK A01 T01560128  RH  084%=      5-min Rain = 0
KSP2 250444Z 08018G23KT 16/13 A2974 RMK A01 T01550128  RH  084%=      5-min Rain = 0
KSP2 250445Z 09019G25KT 16/13 A2974 RMK A01 T01550128  RH  084%=      5-min Rain = 0
KSP2 250446Z 09019G24KT 16/13 A2974 RMK A01 T01550128  RH  084%=      5-min Rain = 0
KSP2 250447Z 09019G24KT 16/13 A2974 RMK A01 T01550127  RH  083%=      5-min Rain = 0
KSP2 250448Z 09022KT 16/13 A2974 RMK A01 T01550126  RH  083%=      5-min Rain = 0
KSP2 250449Z 08023G29KT 16/13 A2974 RMK A01 T01560126  RH  082%=      5-min Rain = 0
KSP2 250450Z 09023KT 16/13 A2974 RMK A01 T01560125  RH  082%=      5-min Rain = 0
KSP2 250451Z 09022G31KT 16/13 A2974 RMK A01 T01560125  RH  082%=      5-min Rain = 0
KSP2 250452Z 09023G29KT 16/13 A2974 RMK A01 T01560125  RH  082%=      5-min Rain = 0
KSP2 250453Z 09020G27KT 16/13 A2974 RMK A01 T01560125  RH  082%=      5-min Rain = 0
KSP2 250454Z 09022G29KT 16/13 A2974 RMK A01 T01560126  RH  083%=      5-min Rain = 0
KSP2 250455Z 09017KT 16/13 A2974 RMK A01 T01550126  RH  083%=      5-min Rain = 0
KSP2 250456Z 08021KT 16/13 A2974 RMK A01 T01550126  RH  083%=      5-min Rain = 0
KSP2 250457Z 09020KT 16/13 A2974 RMK A01 T01550126  RH  083%=      5-min Rain = 0
KSP2 250458Z 09020KT 16/13 A2974 RMK A01 T01550127  RH  083%=      5-min Rain = 0
KSP2 250459Z 09018KT 15/13 A2975 RMK A01 T01540126  RH  083%=      5-min Rain = 0

Page generated in 0.172 seconds.